<?xml version="1.0" encoding="UTF-8" ?>
<gpx xmlns="http://www.topografix.com/GPX/1/1" version="1.1" creator="RouteGadget GPS Tracking" xmlns:xsi="http://www.w3.org/2001/XMLSchema-instance" xmlns:tp1="http://www.garmin.com/xmlschemas/TrackPointExtension/v1" xsi:schemaLocation="http://www.topografix.com/GPX/1/1 http://www.topografix.com/GPX/1/1/gpx.xsd http://www.garmin.com/xmlschemas/TrackPointExtension/v1 http://www.garmin.com/xmlschemas/TrackPointExtensionv1.xsd">
<trk>
<trkseg><trkpt lat="55.358415" lon="26.123244">
<time>2022-05-18T12:49:01Z</time>
</trkpt>
<trkpt lat="55.358416" lon="26.123244">
<time>2022-05-18T12:49:02Z</time>
</trkpt>
<trkpt lat="55.358331" lon="26.123211">
<time>2022-05-18T12:49:07Z</time>
</trkpt>
<trkpt lat="55.358288" lon="26.123182">
<time>2022-05-18T12:49:08Z</time>
</trkpt>
<trkpt lat="55.3582" lon="26.123089">
<time>2022-05-18T12:49:10Z</time>
</trkpt>
<trkpt lat="55.358162" lon="26.123016">
<time>2022-05-18T12:49:11Z</time>
</trkpt>
<trkpt lat="55.358131" lon="26.122928">
<time>2022-05-18T12:49:12Z</time>
</trkpt>
<trkpt lat="55.358087" lon="26.122717">
<time>2022-05-18T12:49:14Z</time>
</trkpt>
<trkpt lat="55.358066" lon="26.122619">
<time>2022-05-18T12:49:15Z</time>
</trkpt>
<trkpt lat="55.358044" lon="26.12253">
<time>2022-05-18T12:49:16Z</time>
</trkpt>
<trkpt lat="55.358025" lon="26.122439">
<time>2022-05-18T12:49:17Z</time>
</trkpt>
<trkpt lat="55.358004" lon="26.122344">
<time>2022-05-18T12:49:18Z</time>
</trkpt>
<trkpt lat="55.357979" lon="26.122253">
<time>2022-05-18T12:49:19Z</time>
</trkpt>
<trkpt lat="55.357953" lon="26.122163">
<time>2022-05-18T12:49:20Z</time>
</trkpt>
<trkpt lat="55.357924" lon="26.12207">
<time>2022-05-18T12:49:21Z</time>
</trkpt>
<trkpt lat="55.357896" lon="26.121974">
<time>2022-05-18T12:49:22Z</time>
</trkpt>
<trkpt lat="55.357879" lon="26.121874">
<time>2022-05-18T12:49:23Z</time>
</trkpt>
<trkpt lat="55.357885" lon="26.121654">
<time>2022-05-18T12:49:25Z</time>
</trkpt>
<trkpt lat="55.357897" lon="26.121414">
<time>2022-05-18T12:49:27Z</time>
</trkpt>
<trkpt lat="55.357898" lon="26.121149">
<time>2022-05-18T12:49:29Z</time>
</trkpt>
<trkpt lat="55.357892" lon="26.121023">
<time>2022-05-18T12:49:30Z</time>
</trkpt>
<trkpt lat="55.357902" lon="26.120766">
<time>2022-05-18T12:49:32Z</time>
</trkpt>
<trkpt lat="55.357955" lon="26.120491">
<time>2022-05-18T12:49:34Z</time>
</trkpt>
<trkpt lat="55.358045" lon="26.120084">
<time>2022-05-18T12:49:37Z</time>
</trkpt>
<trkpt lat="55.358159" lon="26.119609">
<time>2022-05-18T12:49:41Z</time>
</trkpt>
<trkpt lat="55.358175" lon="26.119535">
<time>2022-05-18T12:49:42Z</time>
</trkpt>
<trkpt lat="55.358266" lon="26.119298">
<time>2022-05-18T12:49:45Z</time>
</trkpt>
<trkpt lat="55.358314" lon="26.119232">
<time>2022-05-18T12:49:46Z</time>
</trkpt>
<trkpt lat="55.358669" lon="26.118912">
<time>2022-05-18T12:49:51Z</time>
</trkpt>
<trkpt lat="55.359245" lon="26.118451">
<time>2022-05-18T12:49:58Z</time>
</trkpt>
<trkpt lat="55.359561" lon="26.118205">
<time>2022-05-18T12:50:03Z</time>
</trkpt>
<trkpt lat="55.360027" lon="26.117811">
<time>2022-05-18T12:50:12Z</time>
</trkpt>
<trkpt lat="55.360311" lon="26.117412">
<time>2022-05-18T12:50:18Z</time>
</trkpt>
<trkpt lat="55.360393" lon="26.117173">
<time>2022-05-18T12:50:21Z</time>
</trkpt>
<trkpt lat="55.360426" lon="26.11702">
<time>2022-05-18T12:50:23Z</time>
</trkpt>
<trkpt lat="55.360528" lon="26.116494">
<time>2022-05-18T12:50:30Z</time>
</trkpt>
<trkpt lat="55.36057" lon="26.116011">
<time>2022-05-18T12:50:35Z</time>
</trkpt>
<trkpt lat="55.360637" lon="26.115603">
<time>2022-05-18T12:50:41Z</time>
</trkpt>
<trkpt lat="55.360682" lon="26.115135">
<time>2022-05-18T12:50:46Z</time>
</trkpt>
<trkpt lat="55.360676" lon="26.114608">
<time>2022-05-18T12:50:52Z</time>
</trkpt>
<trkpt lat="55.360654" lon="26.114369">
<time>2022-05-18T12:50:56Z</time>
</trkpt>
<trkpt lat="55.360639" lon="26.114179">
<time>2022-05-18T12:50:59Z</time>
</trkpt>
<trkpt lat="55.360687" lon="26.113756">
<time>2022-05-18T12:51:04Z</time>
</trkpt>
<trkpt lat="55.360747" lon="26.113014">
<time>2022-05-18T12:51:11Z</time>
</trkpt>
<trkpt lat="55.360721" lon="26.112187">
<time>2022-05-18T12:51:18Z</time>
</trkpt>
<trkpt lat="55.360727" lon="26.111953">
<time>2022-05-18T12:51:20Z</time>
</trkpt>
<trkpt lat="55.360768" lon="26.111708">
<time>2022-05-18T12:51:22Z</time>
</trkpt>
<trkpt lat="55.360813" lon="26.111448">
<time>2022-05-18T12:51:24Z</time>
</trkpt>
<trkpt lat="55.360814" lon="26.111197">
<time>2022-05-18T12:51:26Z</time>
</trkpt>
<trkpt lat="55.360822" lon="26.110939">
<time>2022-05-18T12:51:28Z</time>
</trkpt>
<trkpt lat="55.360855" lon="26.110441">
<time>2022-05-18T12:51:32Z</time>
</trkpt>
<trkpt lat="55.360872" lon="26.110331">
<time>2022-05-18T12:51:33Z</time>
</trkpt>
<trkpt lat="55.360883" lon="26.110222">
<time>2022-05-18T12:51:34Z</time>
</trkpt>
<trkpt lat="55.360874" lon="26.10989">
<time>2022-05-18T12:51:37Z</time>
</trkpt>
<trkpt lat="55.360841" lon="26.109579">
<time>2022-05-18T12:51:40Z</time>
</trkpt>
<trkpt lat="55.36084" lon="26.109476">
<time>2022-05-18T12:51:41Z</time>
</trkpt>
<trkpt lat="55.360835" lon="26.109151">
<time>2022-05-18T12:51:44Z</time>
</trkpt>
<trkpt lat="55.360803" lon="26.108934">
<time>2022-05-18T12:51:46Z</time>
</trkpt>
<trkpt lat="55.360747" lon="26.108736">
<time>2022-05-18T12:51:48Z</time>
</trkpt>
<trkpt lat="55.360666" lon="26.10856">
<time>2022-05-18T12:51:50Z</time>
</trkpt>
<trkpt lat="55.360422" lon="26.107933">
<time>2022-05-18T12:51:57Z</time>
</trkpt>
<trkpt lat="55.360242" lon="26.107193">
<time>2022-05-18T12:52:04Z</time>
</trkpt>
<trkpt lat="55.360145" lon="26.106881">
<time>2022-05-18T12:52:07Z</time>
</trkpt>
<trkpt lat="55.360064" lon="26.106736">
<time>2022-05-18T12:52:09Z</time>
</trkpt>
<trkpt lat="55.359962" lon="26.106666">
<time>2022-05-18T12:52:11Z</time>
</trkpt>
<trkpt lat="55.359915" lon="26.106643">
<time>2022-05-18T12:52:12Z</time>
</trkpt>
<trkpt lat="55.359591" lon="26.106557">
<time>2022-05-18T12:52:17Z</time>
</trkpt>
<trkpt lat="55.359248" lon="26.106597">
<time>2022-05-18T12:52:22Z</time>
</trkpt>
<trkpt lat="55.35892" lon="26.106753">
<time>2022-05-18T12:52:27Z</time>
</trkpt>
<trkpt lat="55.358421" lon="26.107034">
<time>2022-05-18T12:52:35Z</time>
</trkpt>
<trkpt lat="55.358222" lon="26.107117">
<time>2022-05-18T12:52:38Z</time>
</trkpt>
<trkpt lat="55.357927" lon="26.107099">
<time>2022-05-18T12:52:43Z</time>
</trkpt>
<trkpt lat="55.357476" lon="26.107001">
<time>2022-05-18T12:52:50Z</time>
</trkpt>
<trkpt lat="55.357417" lon="26.106994">
<time>2022-05-18T12:52:51Z</time>
</trkpt>
<trkpt lat="55.356904" lon="26.106844">
<time>2022-05-18T12:52:59Z</time>
</trkpt>
<trkpt lat="55.356453" lon="26.106745">
<time>2022-05-18T12:53:06Z</time>
</trkpt>
<trkpt lat="55.355877" lon="26.106599">
<time>2022-05-18T12:53:15Z</time>
</trkpt>
<trkpt lat="55.35582" lon="26.106562">
<time>2022-05-18T12:53:16Z</time>
</trkpt>
<trkpt lat="55.355562" lon="26.106289">
<time>2022-05-18T12:53:21Z</time>
</trkpt>
<trkpt lat="55.355096" lon="26.105747">
<time>2022-05-18T12:53:30Z</time>
</trkpt>
<trkpt lat="55.355043" lon="26.105689">
<time>2022-05-18T12:53:31Z</time>
</trkpt>
<trkpt lat="55.354579" lon="26.105209">
<time>2022-05-18T12:53:40Z</time>
</trkpt>
<trkpt lat="55.35443" lon="26.105047">
<time>2022-05-18T12:53:43Z</time>
</trkpt>
<trkpt lat="55.354347" lon="26.104905">
<time>2022-05-18T12:53:45Z</time>
</trkpt>
<trkpt lat="55.354309" lon="26.104825">
<time>2022-05-18T12:53:46Z</time>
</trkpt>
<trkpt lat="55.354154" lon="26.1044">
<time>2022-05-18T12:53:51Z</time>
</trkpt>
<trkpt lat="55.354078" lon="26.104219">
<time>2022-05-18T12:53:53Z</time>
</trkpt>
<trkpt lat="55.353986" lon="26.104071">
<time>2022-05-18T12:53:55Z</time>
</trkpt>
<trkpt lat="55.353933" lon="26.104014">
<time>2022-05-18T12:53:56Z</time>
</trkpt>
<trkpt lat="55.353551" lon="26.103565">
<time>2022-05-18T12:54:04Z</time>
</trkpt>
<trkpt lat="55.353196" lon="26.103058">
<time>2022-05-18T12:54:12Z</time>
</trkpt>
<trkpt lat="55.353008" lon="26.102818">
<time>2022-05-18T12:54:16Z</time>
</trkpt>
<trkpt lat="55.352858" lon="26.102761">
<time>2022-05-18T12:54:19Z</time>
</trkpt>
<trkpt lat="55.352761" lon="26.102849">
<time>2022-05-18T12:54:21Z</time>
</trkpt>
<trkpt lat="55.352657" lon="26.10296">
<time>2022-05-18T12:54:23Z</time>
</trkpt>
<trkpt lat="55.352505" lon="26.103198">
<time>2022-05-18T12:54:26Z</time>
</trkpt>
<trkpt lat="55.352416" lon="26.10336">
<time>2022-05-18T12:54:28Z</time>
</trkpt>
<trkpt lat="55.352312" lon="26.103609">
<time>2022-05-18T12:54:31Z</time>
</trkpt>
<trkpt lat="55.352227" lon="26.103852">
<time>2022-05-18T12:54:34Z</time>
</trkpt>
<trkpt lat="55.352159" lon="26.104243">
<time>2022-05-18T12:54:39Z</time>
</trkpt>
<trkpt lat="55.352123" lon="26.104582">
<time>2022-05-18T12:54:43Z</time>
</trkpt>
<trkpt lat="55.352106" lon="26.104799">
<time>2022-05-18T12:54:46Z</time>
</trkpt>
<trkpt lat="55.352047" lon="26.105193">
<time>2022-05-18T12:54:52Z</time>
</trkpt>
<trkpt lat="55.35199" lon="26.105361">
<time>2022-05-18T12:54:55Z</time>
</trkpt>
<trkpt lat="55.351902" lon="26.105571">
<time>2022-05-18T12:54:59Z</time>
</trkpt>
<trkpt lat="55.351825" lon="26.105749">
<time>2022-05-18T12:55:02Z</time>
</trkpt>
<trkpt lat="55.351736" lon="26.105923">
<time>2022-05-18T12:55:05Z</time>
</trkpt>
<trkpt lat="55.3517" lon="26.105976">
<time>2022-05-18T12:55:06Z</time>
</trkpt>
<trkpt lat="55.351593" lon="26.10613">
<time>2022-05-18T12:55:09Z</time>
</trkpt>
<trkpt lat="55.351538" lon="26.106227">
<time>2022-05-18T12:55:11Z</time>
</trkpt>
<trkpt lat="55.351233" lon="26.106676">
<time>2022-05-18T12:55:19Z</time>
</trkpt>
<trkpt lat="55.351099" lon="26.10694">
<time>2022-05-18T12:55:23Z</time>
</trkpt>
<trkpt lat="55.351066" lon="26.107088">
<time>2022-05-18T12:55:25Z</time>
</trkpt>
<trkpt lat="55.350923" lon="26.107596">
<time>2022-05-18T12:55:31Z</time>
</trkpt>
<trkpt lat="55.350894" lon="26.107645">
<time>2022-05-18T12:55:32Z</time>
</trkpt>
<trkpt lat="55.350804" lon="26.107705">
<time>2022-05-18T12:55:34Z</time>
</trkpt>
<trkpt lat="55.350755" lon="26.107708">
<time>2022-05-18T12:55:35Z</time>
</trkpt>
<trkpt lat="55.350505" lon="26.107747">
<time>2022-05-18T12:55:40Z</time>
</trkpt>
<trkpt lat="55.350421" lon="26.107693">
<time>2022-05-18T12:55:42Z</time>
</trkpt>
<trkpt lat="55.350244" lon="26.107581">
<time>2022-05-18T12:55:47Z</time>
</trkpt>
<trkpt lat="55.350082" lon="26.107478">
<time>2022-05-18T12:55:51Z</time>
</trkpt>
<trkpt lat="55.349942" lon="26.107348">
<time>2022-05-18T12:55:55Z</time>
</trkpt>
<trkpt lat="55.349805" lon="26.107246">
<time>2022-05-18T12:55:59Z</time>
</trkpt>
<trkpt lat="55.349655" lon="26.107134">
<time>2022-05-18T12:56:03Z</time>
</trkpt>
<trkpt lat="55.34943" lon="26.106879">
<time>2022-05-18T12:56:09Z</time>
</trkpt>
<trkpt lat="55.349304" lon="26.106651">
<time>2022-05-18T12:56:13Z</time>
</trkpt>
<trkpt lat="55.349209" lon="26.106441">
<time>2022-05-18T12:56:16Z</time>
</trkpt>
<trkpt lat="55.349175" lon="26.106391">
<time>2022-05-18T12:56:17Z</time>
</trkpt>
<trkpt lat="55.349016" lon="26.106201">
<time>2022-05-18T12:56:21Z</time>
</trkpt>
<trkpt lat="55.34897" lon="26.106156">
<time>2022-05-18T12:56:22Z</time>
</trkpt>
<trkpt lat="55.348888" lon="26.106106">
<time>2022-05-18T12:56:24Z</time>
</trkpt>
<trkpt lat="55.348754" lon="26.106074">
<time>2022-05-18T12:56:27Z</time>
</trkpt>
<trkpt lat="55.348608" lon="26.106094">
<time>2022-05-18T12:56:30Z</time>
</trkpt>
<trkpt lat="55.348513" lon="26.10609">
<time>2022-05-18T12:56:32Z</time>
</trkpt>
<trkpt lat="55.348467" lon="26.106102">
<time>2022-05-18T12:56:33Z</time>
</trkpt>
<trkpt lat="55.348308" lon="26.10609">
<time>2022-05-18T12:56:36Z</time>
</trkpt>
<trkpt lat="55.348253" lon="26.106072">
<time>2022-05-18T12:56:37Z</time>
</trkpt>
<trkpt lat="55.348201" lon="26.106041">
<time>2022-05-18T12:56:38Z</time>
</trkpt>
<trkpt lat="55.347911" lon="26.105871">
<time>2022-05-18T12:56:44Z</time>
</trkpt>
<trkpt lat="55.347651" lon="26.105666">
<time>2022-05-18T12:56:50Z</time>
</trkpt>
<trkpt lat="55.3475" lon="26.105588">
<time>2022-05-18T12:56:54Z</time>
</trkpt>
<trkpt lat="55.347425" lon="26.105637">
<time>2022-05-18T12:56:56Z</time>
</trkpt>
<trkpt lat="55.34736" lon="26.105753">
<time>2022-05-18T12:56:58Z</time>
</trkpt>
<trkpt lat="55.34728" lon="26.105925">
<time>2022-05-18T12:57:00Z</time>
</trkpt>
<trkpt lat="55.347164" lon="26.106155">
<time>2022-05-18T12:57:03Z</time>
</trkpt>
<trkpt lat="55.347073" lon="26.106256">
<time>2022-05-18T12:57:05Z</time>
</trkpt>
<trkpt lat="55.34697" lon="26.106283">
<time>2022-05-18T12:57:07Z</time>
</trkpt>
<trkpt lat="55.346854" lon="26.106274">
<time>2022-05-18T12:57:09Z</time>
</trkpt>
<trkpt lat="55.346744" lon="26.106295">
<time>2022-05-18T12:57:11Z</time>
</trkpt>
<trkpt lat="55.346655" lon="26.106389">
<time>2022-05-18T12:57:13Z</time>
</trkpt>
<trkpt lat="55.346604" lon="26.106565">
<time>2022-05-18T12:57:15Z</time>
</trkpt>
<trkpt lat="55.346585" lon="26.106671">
<time>2022-05-18T12:57:16Z</time>
</trkpt>
<trkpt lat="55.34654" lon="26.107043">
<time>2022-05-18T12:57:19Z</time>
</trkpt>
<trkpt lat="55.346512" lon="26.107161">
<time>2022-05-18T12:57:20Z</time>
</trkpt>
<trkpt lat="55.346427" lon="26.10733">
<time>2022-05-18T12:57:22Z</time>
</trkpt>
<trkpt lat="55.346368" lon="26.107371">
<time>2022-05-18T12:57:23Z</time>
</trkpt>
<trkpt lat="55.346305" lon="26.107383">
<time>2022-05-18T12:57:24Z</time>
</trkpt>
<trkpt lat="55.346192" lon="26.107315">
<time>2022-05-18T12:57:26Z</time>
</trkpt>
<trkpt lat="55.346151" lon="26.107164">
<time>2022-05-18T12:57:28Z</time>
</trkpt>
<trkpt lat="55.346125" lon="26.106958">
<time>2022-05-18T12:57:30Z</time>
</trkpt>
<trkpt lat="55.346075" lon="26.10678">
<time>2022-05-18T12:57:32Z</time>
</trkpt>
<trkpt lat="55.345849" lon="26.10629">
<time>2022-05-18T12:57:38Z</time>
</trkpt>
<trkpt lat="55.345696" lon="26.106079">
<time>2022-05-18T12:57:41Z</time>
</trkpt>
<trkpt lat="55.345523" lon="26.105907">
<time>2022-05-18T12:57:44Z</time>
</trkpt>
<trkpt lat="55.345165" lon="26.105479">
<time>2022-05-18T12:57:50Z</time>
</trkpt>
<trkpt lat="55.344911" lon="26.105177">
<time>2022-05-18T12:57:54Z</time>
</trkpt>
<trkpt lat="55.344709" lon="26.104958">
<time>2022-05-18T12:57:57Z</time>
</trkpt>
<trkpt lat="55.344592" lon="26.104812">
<time>2022-05-18T12:57:59Z</time>
</trkpt>
<trkpt lat="55.344451" lon="26.104567">
<time>2022-05-18T12:58:01Z</time>
</trkpt>
<trkpt lat="55.344401" lon="26.104444">
<time>2022-05-18T12:58:02Z</time>
</trkpt>
<trkpt lat="55.344274" lon="26.103957">
<time>2022-05-18T12:58:06Z</time>
</trkpt>
<trkpt lat="55.344207" lon="26.103207">
<time>2022-05-18T12:58:12Z</time>
</trkpt>
<trkpt lat="55.344163" lon="26.102707">
<time>2022-05-18T12:58:16Z</time>
</trkpt>
<trkpt lat="55.344097" lon="26.102518">
<time>2022-05-18T12:58:18Z</time>
</trkpt>
<trkpt lat="55.343999" lon="26.102372">
<time>2022-05-18T12:58:20Z</time>
</trkpt>
<trkpt lat="55.343928" lon="26.102341">
<time>2022-05-18T12:58:21Z</time>
</trkpt>
<trkpt lat="55.343854" lon="26.102347">
<time>2022-05-18T12:58:22Z</time>
</trkpt>
<trkpt lat="55.34371" lon="26.102492">
<time>2022-05-18T12:58:24Z</time>
</trkpt>
<trkpt lat="55.343588" lon="26.102664">
<time>2022-05-18T12:58:26Z</time>
</trkpt>
<trkpt lat="55.343481" lon="26.102832">
<time>2022-05-18T12:58:28Z</time>
</trkpt>
<trkpt lat="55.343388" lon="26.102996">
<time>2022-05-18T12:58:30Z</time>
</trkpt>
<trkpt lat="55.343346" lon="26.10306">
<time>2022-05-18T12:58:31Z</time>
</trkpt>
<trkpt lat="55.343248" lon="26.103118">
<time>2022-05-18T12:58:33Z</time>
</trkpt>
<trkpt lat="55.342988" lon="26.103142">
<time>2022-05-18T12:58:37Z</time>
</trkpt>
<trkpt lat="55.342866" lon="26.103259">
<time>2022-05-18T12:58:39Z</time>
</trkpt>
<trkpt lat="55.342819" lon="26.103342">
<time>2022-05-18T12:58:40Z</time>
</trkpt>
<trkpt lat="55.342617" lon="26.103776">
<time>2022-05-18T12:58:45Z</time>
</trkpt>
<trkpt lat="55.342601" lon="26.103877">
<time>2022-05-18T12:58:46Z</time>
</trkpt>
<trkpt lat="55.342549" lon="26.104073">
<time>2022-05-18T12:58:48Z</time>
</trkpt>
<trkpt lat="55.342477" lon="26.104287">
<time>2022-05-18T12:58:51Z</time>
</trkpt>
<trkpt lat="55.342421" lon="26.104491">
<time>2022-05-18T12:58:55Z</time>
</trkpt>
<trkpt lat="55.342406" lon="26.104535">
<time>2022-05-18T12:58:56Z</time>
</trkpt>
<trkpt lat="55.342312" lon="26.104702">
<time>2022-05-18T12:59:00Z</time>
</trkpt>
<trkpt lat="55.34225" lon="26.104795">
<time>2022-05-18T12:59:02Z</time>
</trkpt>
<trkpt lat="55.342081" lon="26.105119">
<time>2022-05-18T12:59:08Z</time>
</trkpt>
<trkpt lat="55.342006" lon="26.105295">
<time>2022-05-18T12:59:11Z</time>
</trkpt>
<trkpt lat="55.341973" lon="26.105439">
<time>2022-05-18T12:59:13Z</time>
</trkpt>
<trkpt lat="55.341955" lon="26.105516">
<time>2022-05-18T12:59:14Z</time>
</trkpt>
<trkpt lat="55.341798" lon="26.106127">
<time>2022-05-18T12:59:22Z</time>
</trkpt>
<trkpt lat="55.341704" lon="26.106437">
<time>2022-05-18T12:59:27Z</time>
</trkpt>
<trkpt lat="55.341637" lon="26.106599">
<time>2022-05-18T12:59:30Z</time>
</trkpt>
<trkpt lat="55.341499" lon="26.106843">
<time>2022-05-18T12:59:36Z</time>
</trkpt>
<trkpt lat="55.341376" lon="26.107195">
<time>2022-05-18T12:59:43Z</time>
</trkpt>
<trkpt lat="55.341227" lon="26.107696">
<time>2022-05-18T12:59:51Z</time>
</trkpt>
<trkpt lat="55.341185" lon="26.107898">
<time>2022-05-18T12:59:55Z</time>
</trkpt>
<trkpt lat="55.341213" lon="26.107968">
<time>2022-05-18T12:59:57Z</time>
</trkpt>
<trkpt lat="55.341318" lon="26.107925">
<time>2022-05-18T13:00:00Z</time>
</trkpt>
<trkpt lat="55.341377" lon="26.107889">
<time>2022-05-18T13:00:01Z</time>
</trkpt>
<trkpt lat="55.341545" lon="26.107769">
<time>2022-05-18T13:00:04Z</time>
</trkpt>
<trkpt lat="55.341671" lon="26.107668">
<time>2022-05-18T13:00:06Z</time>
</trkpt>
<trkpt lat="55.341738" lon="26.107603">
<time>2022-05-18T13:00:07Z</time>
</trkpt>
<trkpt lat="55.341867" lon="26.107474">
<time>2022-05-18T13:00:09Z</time>
</trkpt>
<trkpt lat="55.341978" lon="26.107346">
<time>2022-05-18T13:00:11Z</time>
</trkpt>
<trkpt lat="55.342125" lon="26.107128">
<time>2022-05-18T13:00:15Z</time>
</trkpt>
<trkpt lat="55.342209" lon="26.106978">
<time>2022-05-18T13:00:19Z</time>
</trkpt>
<trkpt lat="55.342215" lon="26.106965">
<time>2022-05-18T13:00:20Z</time>
</trkpt>
<trkpt lat="55.342232" lon="26.107015">
<time>2022-05-18T13:00:24Z</time>
</trkpt>
<trkpt lat="55.342268" lon="26.107162">
<time>2022-05-18T13:00:29Z</time>
</trkpt>
<trkpt lat="55.342303" lon="26.107336">
<time>2022-05-18T13:00:34Z</time>
</trkpt>
<trkpt lat="55.342313" lon="26.107322">
<time>2022-05-18T13:00:35Z</time>
</trkpt>
<trkpt lat="55.342326" lon="26.107267">
<time>2022-05-18T13:00:37Z</time>
</trkpt>
<trkpt lat="55.342326" lon="26.107154">
<time>2022-05-18T13:00:40Z</time>
</trkpt>
<trkpt lat="55.342232" lon="26.107078">
<time>2022-05-18T13:00:45Z</time>
</trkpt>
<trkpt lat="55.342158" lon="26.107105">
<time>2022-05-18T13:00:48Z</time>
</trkpt>
<trkpt lat="55.342095" lon="26.107171">
<time>2022-05-18T13:00:51Z</time>
</trkpt>
<trkpt lat="55.342033" lon="26.107268">
<time>2022-05-18T13:00:55Z</time>
</trkpt>
<trkpt lat="55.341984" lon="26.107319">
<time>2022-05-18T13:00:58Z</time>
</trkpt>
<trkpt lat="55.341874" lon="26.107466">
<time>2022-05-18T13:01:04Z</time>
</trkpt>
<trkpt lat="55.341797" lon="26.107548">
<time>2022-05-18T13:01:08Z</time>
</trkpt>
<trkpt lat="55.341735" lon="26.107596">
<time>2022-05-18T13:01:11Z</time>
</trkpt>
<trkpt lat="55.341675" lon="26.107651">
<time>2022-05-18T13:01:14Z</time>
</trkpt>
<trkpt lat="55.341596" lon="26.107705">
<time>2022-05-18T13:01:17Z</time>
</trkpt>
<trkpt lat="55.341571" lon="26.10773">
<time>2022-05-18T13:01:18Z</time>
</trkpt>
<trkpt lat="55.341475" lon="26.107821">
<time>2022-05-18T13:01:22Z</time>
</trkpt>
<trkpt lat="55.341379" lon="26.107896">
<time>2022-05-18T13:01:26Z</time>
</trkpt>
<trkpt lat="55.341172" lon="26.108102">
<time>2022-05-18T13:01:34Z</time>
</trkpt>
<trkpt lat="55.341165" lon="26.108135">
<time>2022-05-18T13:01:35Z</time>
</trkpt>
<trkpt lat="55.341173" lon="26.108231">
<time>2022-05-18T13:01:37Z</time>
</trkpt>
<trkpt lat="55.341146" lon="26.10857">
<time>2022-05-18T13:01:41Z</time>
</trkpt>
<trkpt lat="55.341124" lon="26.109351">
<time>2022-05-18T13:01:50Z</time>
</trkpt>
<trkpt lat="55.341119" lon="26.109613">
<time>2022-05-18T13:01:53Z</time>
</trkpt>
<trkpt lat="55.341096" lon="26.109964">
<time>2022-05-18T13:01:57Z</time>
</trkpt>
<trkpt lat="55.341071" lon="26.110597">
<time>2022-05-18T13:02:04Z</time>
</trkpt>
<trkpt lat="55.341047" lon="26.111109">
<time>2022-05-18T13:02:09Z</time>
</trkpt>
<trkpt lat="55.341063" lon="26.11121">
<time>2022-05-18T13:02:10Z</time>
</trkpt>
<trkpt lat="55.341083" lon="26.111329">
<time>2022-05-18T13:02:11Z</time>
</trkpt>
<trkpt lat="55.341146" lon="26.111748">
<time>2022-05-18T13:02:14Z</time>
</trkpt>
<trkpt lat="55.341205" lon="26.112249">
<time>2022-05-18T13:02:17Z</time>
</trkpt>
<trkpt lat="55.341223" lon="26.112411">
<time>2022-05-18T13:02:18Z</time>
</trkpt>
<trkpt lat="55.341279" lon="26.11288">
<time>2022-05-18T13:02:21Z</time>
</trkpt>
<trkpt lat="55.341328" lon="26.113129">
<time>2022-05-18T13:02:23Z</time>
</trkpt>
<trkpt lat="55.341331" lon="26.113221">
<time>2022-05-18T13:02:24Z</time>
</trkpt>
<trkpt lat="55.341308" lon="26.113383">
<time>2022-05-18T13:02:26Z</time>
</trkpt>
<trkpt lat="55.34124" lon="26.113477">
<time>2022-05-18T13:02:30Z</time>
</trkpt>
<trkpt lat="55.341183" lon="26.113558">
<time>2022-05-18T13:02:34Z</time>
</trkpt>
<trkpt lat="55.341188" lon="26.113596">
<time>2022-05-18T13:02:35Z</time>
</trkpt>
<trkpt lat="55.341232" lon="26.113816">
<time>2022-05-18T13:02:41Z</time>
</trkpt>
<trkpt lat="55.341215" lon="26.113863">
<time>2022-05-18T13:02:42Z</time>
</trkpt>
<trkpt lat="55.341206" lon="26.114082">
<time>2022-05-18T13:02:46Z</time>
</trkpt>
<trkpt lat="55.341212" lon="26.11415">
<time>2022-05-18T13:02:47Z</time>
</trkpt>
<trkpt lat="55.341235" lon="26.114339">
<time>2022-05-18T13:02:50Z</time>
</trkpt>
<trkpt lat="55.341234" lon="26.114491">
<time>2022-05-18T13:02:52Z</time>
</trkpt>
<trkpt lat="55.341236" lon="26.114549">
<time>2022-05-18T13:02:53Z</time>
</trkpt>
<trkpt lat="55.341277" lon="26.114868">
<time>2022-05-18T13:02:57Z</time>
</trkpt>
<trkpt lat="55.341287" lon="26.115022">
<time>2022-05-18T13:02:59Z</time>
</trkpt>
<trkpt lat="55.341286" lon="26.115171">
<time>2022-05-18T13:03:01Z</time>
</trkpt>
<trkpt lat="55.341262" lon="26.115261">
<time>2022-05-18T13:03:03Z</time>
</trkpt>
<trkpt lat="55.341166" lon="26.115241">
<time>2022-05-18T13:03:06Z</time>
</trkpt>
<trkpt lat="55.3411" lon="26.115188">
<time>2022-05-18T13:03:08Z</time>
</trkpt>
<trkpt lat="55.340949" lon="26.115025">
<time>2022-05-18T13:03:11Z</time>
</trkpt>
<trkpt lat="55.340562" lon="26.114732">
<time>2022-05-18T13:03:17Z</time>
</trkpt>
<trkpt lat="55.340441" lon="26.114671">
<time>2022-05-18T13:03:19Z</time>
</trkpt>
<trkpt lat="55.340228" lon="26.11467">
<time>2022-05-18T13:03:22Z</time>
</trkpt>
<trkpt lat="55.340018" lon="26.114582">
<time>2022-05-18T13:03:27Z</time>
</trkpt>
<trkpt lat="55.339844" lon="26.114459">
<time>2022-05-18T13:03:33Z</time>
</trkpt>
<trkpt lat="55.339671" lon="26.114439">
<time>2022-05-18T13:03:39Z</time>
</trkpt>
<trkpt lat="55.339629" lon="26.114646">
<time>2022-05-18T13:03:43Z</time>
</trkpt>
<trkpt lat="55.339619" lon="26.11479">
<time>2022-05-18T13:03:47Z</time>
</trkpt>
<trkpt lat="55.33962" lon="26.114774">
<time>2022-05-18T13:03:48Z</time>
</trkpt>
<trkpt lat="55.339616" lon="26.114584">
<time>2022-05-18T13:03:52Z</time>
</trkpt>
<trkpt lat="55.339621" lon="26.114464">
<time>2022-05-18T13:03:54Z</time>
</trkpt>
<trkpt lat="55.339588" lon="26.11435">
<time>2022-05-18T13:03:56Z</time>
</trkpt>
<trkpt lat="55.339542" lon="26.114294">
<time>2022-05-18T13:03:57Z</time>
</trkpt>
<trkpt lat="55.339446" lon="26.114247">
<time>2022-05-18T13:03:59Z</time>
</trkpt>
<trkpt lat="55.339288" lon="26.114195">
<time>2022-05-18T13:04:02Z</time>
</trkpt>
<trkpt lat="55.338826" lon="26.114165">
<time>2022-05-18T13:04:10Z</time>
</trkpt>
<trkpt lat="55.338524" lon="26.114098">
<time>2022-05-18T13:04:16Z</time>
</trkpt>
<trkpt lat="55.338484" lon="26.114075">
<time>2022-05-18T13:04:17Z</time>
</trkpt>
<trkpt lat="55.338224" lon="26.113891">
<time>2022-05-18T13:04:24Z</time>
</trkpt>
<trkpt lat="55.337976" lon="26.113646">
<time>2022-05-18T13:04:29Z</time>
</trkpt>
<trkpt lat="55.337767" lon="26.113445">
<time>2022-05-18T13:04:32Z</time>
</trkpt>
<trkpt lat="55.337624" lon="26.113313">
<time>2022-05-18T13:04:34Z</time>
</trkpt>
<trkpt lat="55.33738" lon="26.113079">
<time>2022-05-18T13:04:38Z</time>
</trkpt>
<trkpt lat="55.337141" lon="26.112861">
<time>2022-05-18T13:04:42Z</time>
</trkpt>
<trkpt lat="55.336884" lon="26.112649">
<time>2022-05-18T13:04:46Z</time>
</trkpt>
<trkpt lat="55.33646" lon="26.112438">
<time>2022-05-18T13:04:52Z</time>
</trkpt>
<trkpt lat="55.336327" lon="26.112397">
<time>2022-05-18T13:04:54Z</time>
</trkpt>
<trkpt lat="55.336235" lon="26.112292">
<time>2022-05-18T13:04:56Z</time>
</trkpt>
<trkpt lat="55.336202" lon="26.11211">
<time>2022-05-18T13:04:58Z</time>
</trkpt>
<trkpt lat="55.336176" lon="26.112001">
<time>2022-05-18T13:04:59Z</time>
</trkpt>
<trkpt lat="55.336137" lon="26.111878">
<time>2022-05-18T13:05:00Z</time>
</trkpt>
<trkpt lat="55.336004" lon="26.111577">
<time>2022-05-18T13:05:03Z</time>
</trkpt>
<trkpt lat="55.335709" lon="26.111078">
<time>2022-05-18T13:05:10Z</time>
</trkpt>
<trkpt lat="55.335477" lon="26.110761">
<time>2022-05-18T13:05:16Z</time>
</trkpt>
<trkpt lat="55.335445" lon="26.110716">
<time>2022-05-18T13:05:17Z</time>
</trkpt>
<trkpt lat="55.335294" lon="26.110537">
<time>2022-05-18T13:05:21Z</time>
</trkpt>
<trkpt lat="55.335106" lon="26.110303">
<time>2022-05-18T13:05:27Z</time>
</trkpt>
<trkpt lat="55.335003" lon="26.110186">
<time>2022-05-18T13:05:30Z</time>
</trkpt>
<trkpt lat="55.334872" lon="26.110022">
<time>2022-05-18T13:05:33Z</time>
</trkpt>
<trkpt lat="55.334827" lon="26.109953">
<time>2022-05-18T13:05:34Z</time>
</trkpt>
<trkpt lat="55.334741" lon="26.109714">
<time>2022-05-18T13:05:36Z</time>
</trkpt>
<trkpt lat="55.334703" lon="26.109579">
<time>2022-05-18T13:05:37Z</time>
</trkpt>
<trkpt lat="55.33468" lon="26.109495">
<time>2022-05-18T13:05:38Z</time>
</trkpt>
<trkpt lat="55.334608" lon="26.10936">
<time>2022-05-18T13:05:40Z</time>
</trkpt>
<trkpt lat="55.334568" lon="26.109292">
<time>2022-05-18T13:05:41Z</time>
</trkpt>
<trkpt lat="55.334482" lon="26.109151">
<time>2022-05-18T13:05:43Z</time>
</trkpt>
<trkpt lat="55.334309" lon="26.10899">
<time>2022-05-18T13:05:46Z</time>
</trkpt>
<trkpt lat="55.33411" lon="26.108904">
<time>2022-05-18T13:05:49Z</time>
</trkpt>
<trkpt lat="55.333986" lon="26.108762">
<time>2022-05-18T13:05:51Z</time>
</trkpt>
<trkpt lat="55.333904" lon="26.108592">
<time>2022-05-18T13:05:53Z</time>
</trkpt>
<trkpt lat="55.333874" lon="26.108492">
<time>2022-05-18T13:05:54Z</time>
</trkpt>
<trkpt lat="55.333823" lon="26.108269">
<time>2022-05-18T13:05:59Z</time>
</trkpt>
<trkpt lat="55.333815" lon="26.108167">
<time>2022-05-18T13:06:02Z</time>
</trkpt>
<trkpt lat="55.333785" lon="26.108047">
<time>2022-05-18T13:06:05Z</time>
</trkpt>
<trkpt lat="55.333779" lon="26.108027">
<time>2022-05-18T13:06:06Z</time>
</trkpt>
<trkpt lat="55.333754" lon="26.107932">
<time>2022-05-18T13:06:09Z</time>
</trkpt>
<trkpt lat="55.333765" lon="26.1078">
<time>2022-05-18T13:06:12Z</time>
</trkpt>
<trkpt lat="55.33378" lon="26.107726">
<time>2022-05-18T13:06:14Z</time>
</trkpt>
<trkpt lat="55.333848" lon="26.107412">
<time>2022-05-18T13:06:20Z</time>
</trkpt>
<trkpt lat="55.33384" lon="26.107355">
<time>2022-05-18T13:06:21Z</time>
</trkpt>
<trkpt lat="55.333812" lon="26.107271">
<time>2022-05-18T13:06:23Z</time>
</trkpt>
<trkpt lat="55.333646" lon="26.107078">
<time>2022-05-18T13:06:28Z</time>
</trkpt>
<trkpt lat="55.333601" lon="26.10704">
<time>2022-05-18T13:06:29Z</time>
</trkpt>
<trkpt lat="55.333374" lon="26.106958">
<time>2022-05-18T13:06:34Z</time>
</trkpt>
<trkpt lat="55.333211" lon="26.106729">
<time>2022-05-18T13:06:38Z</time>
</trkpt>
<trkpt lat="55.333182" lon="26.106655">
<time>2022-05-18T13:06:39Z</time>
</trkpt>
<trkpt lat="55.332943" lon="26.105992">
<time>2022-05-18T13:06:46Z</time>
</trkpt>
<trkpt lat="55.332821" lon="26.105749">
<time>2022-05-18T13:06:49Z</time>
</trkpt>
<trkpt lat="55.332766" lon="26.105676">
<time>2022-05-18T13:06:50Z</time>
</trkpt>
<trkpt lat="55.332608" lon="26.105513">
<time>2022-05-18T13:06:53Z</time>
</trkpt>
<trkpt lat="55.332543" lon="26.10549">
<time>2022-05-18T13:06:55Z</time>
</trkpt>
<trkpt lat="55.332528" lon="26.105493">
<time>2022-05-18T13:06:57Z</time>
</trkpt>
<trkpt lat="55.332519" lon="26.105489">
<time>2022-05-18T13:06:58Z</time>
</trkpt>
<trkpt lat="55.332546" lon="26.105484">
<time>2022-05-18T13:07:00Z</time>
</trkpt>
<trkpt lat="55.332586" lon="26.105379">
<time>2022-05-18T13:07:03Z</time>
</trkpt>
<trkpt lat="55.332571" lon="26.105236">
<time>2022-05-18T13:07:06Z</time>
</trkpt>
<trkpt lat="55.332559" lon="26.105114">
<time>2022-05-18T13:07:08Z</time>
</trkpt>
<trkpt lat="55.332574" lon="26.104932">
<time>2022-05-18T13:07:11Z</time>
</trkpt>
<trkpt lat="55.332565" lon="26.104804">
<time>2022-05-18T13:07:13Z</time>
</trkpt>
<trkpt lat="55.332516" lon="26.104577">
<time>2022-05-18T13:07:16Z</time>
</trkpt>
<trkpt lat="55.332499" lon="26.10441">
<time>2022-05-18T13:07:18Z</time>
</trkpt>
<trkpt lat="55.332499" lon="26.104171">
<time>2022-05-18T13:07:20Z</time>
</trkpt>
<trkpt lat="55.332516" lon="26.103923">
<time>2022-05-18T13:07:22Z</time>
</trkpt>
<trkpt lat="55.332526" lon="26.103651">
<time>2022-05-18T13:07:24Z</time>
</trkpt>
<trkpt lat="55.332506" lon="26.103431">
<time>2022-05-18T13:07:26Z</time>
</trkpt>
<trkpt lat="55.332444" lon="26.102971">
<time>2022-05-18T13:07:30Z</time>
</trkpt>
<trkpt lat="55.332459" lon="26.102768">
<time>2022-05-18T13:07:32Z</time>
</trkpt>
<trkpt lat="55.33249" lon="26.102605">
<time>2022-05-18T13:07:34Z</time>
</trkpt>
<trkpt lat="55.33252" lon="26.102467">
<time>2022-05-18T13:07:36Z</time>
</trkpt>
<trkpt lat="55.332535" lon="26.102393">
<time>2022-05-18T13:07:37Z</time>
</trkpt>
<trkpt lat="55.332549" lon="26.102191">
<time>2022-05-18T13:07:40Z</time>
</trkpt>
<trkpt lat="55.332546" lon="26.102101">
<time>2022-05-18T13:07:41Z</time>
</trkpt>
<trkpt lat="55.332551" lon="26.101865">
<time>2022-05-18T13:07:44Z</time>
</trkpt>
<trkpt lat="55.33256" lon="26.101552">
<time>2022-05-18T13:07:48Z</time>
</trkpt>
<trkpt lat="55.332518" lon="26.101017">
<time>2022-05-18T13:07:55Z</time>
</trkpt>
<trkpt lat="55.332546" lon="26.100855">
<time>2022-05-18T13:07:57Z</time>
</trkpt>
<trkpt lat="55.332594" lon="26.100708">
<time>2022-05-18T13:07:59Z</time>
</trkpt>
<trkpt lat="55.332623" lon="26.100648">
<time>2022-05-18T13:08:00Z</time>
</trkpt>
<trkpt lat="55.332684" lon="26.100536">
<time>2022-05-18T13:08:02Z</time>
</trkpt>
<trkpt lat="55.332746" lon="26.100456">
<time>2022-05-18T13:08:04Z</time>
</trkpt>
<trkpt lat="55.332799" lon="26.100356">
<time>2022-05-18T13:08:06Z</time>
</trkpt>
<trkpt lat="55.332898" lon="26.100173">
<time>2022-05-18T13:08:09Z</time>
</trkpt>
<trkpt lat="55.332951" lon="26.100082">
<time>2022-05-18T13:08:10Z</time>
</trkpt>
<trkpt lat="55.333085" lon="26.099799">
<time>2022-05-18T13:08:13Z</time>
</trkpt>
<trkpt lat="55.333147" lon="26.099668">
<time>2022-05-18T13:08:15Z</time>
</trkpt>
<trkpt lat="55.333168" lon="26.099586">
<time>2022-05-18T13:08:17Z</time>
</trkpt>
<trkpt lat="55.333197" lon="26.099477">
<time>2022-05-18T13:08:21Z</time>
</trkpt>
<trkpt lat="55.33334" lon="26.099545">
<time>2022-05-18T13:08:26Z</time>
</trkpt>
<trkpt lat="55.333381" lon="26.099572">
<time>2022-05-18T13:08:27Z</time>
</trkpt>
<trkpt lat="55.333456" lon="26.09965">
<time>2022-05-18T13:08:29Z</time>
</trkpt>
<trkpt lat="55.333559" lon="26.099794">
<time>2022-05-18T13:08:32Z</time>
</trkpt>
<trkpt lat="55.333663" lon="26.099883">
<time>2022-05-18T13:08:34Z</time>
</trkpt>
<trkpt lat="55.33397" lon="26.100047">
<time>2022-05-18T13:08:39Z</time>
</trkpt>
<trkpt lat="55.334048" lon="26.100044">
<time>2022-05-18T13:08:40Z</time>
</trkpt>
<trkpt lat="55.334105" lon="26.100026">
<time>2022-05-18T13:08:41Z</time>
</trkpt>
<trkpt lat="55.334349" lon="26.099892">
<time>2022-05-18T13:08:45Z</time>
</trkpt>
<trkpt lat="55.334409" lon="26.099871">
<time>2022-05-18T13:08:46Z</time>
</trkpt>
<trkpt lat="55.334577" lon="26.099879">
<time>2022-05-18T13:08:49Z</time>
</trkpt>
<trkpt lat="55.334621" lon="26.099897">
<time>2022-05-18T13:08:50Z</time>
</trkpt>
<trkpt lat="55.334752" lon="26.09999">
<time>2022-05-18T13:08:53Z</time>
</trkpt>
<trkpt lat="55.334891" lon="26.100176">
<time>2022-05-18T13:08:56Z</time>
</trkpt>
<trkpt lat="55.334964" lon="26.100352">
<time>2022-05-18T13:08:58Z</time>
</trkpt>
<trkpt lat="55.335083" lon="26.100624">
<time>2022-05-18T13:09:01Z</time>
</trkpt>
<trkpt lat="55.335142" lon="26.100796">
<time>2022-05-18T13:09:03Z</time>
</trkpt>
<trkpt lat="55.335204" lon="26.100959">
<time>2022-05-18T13:09:05Z</time>
</trkpt>
<trkpt lat="55.335271" lon="26.101227">
<time>2022-05-18T13:09:08Z</time>
</trkpt>
<trkpt lat="55.335307" lon="26.1014">
<time>2022-05-18T13:09:10Z</time>
</trkpt>
<trkpt lat="55.335337" lon="26.101592">
<time>2022-05-18T13:09:13Z</time>
</trkpt>
<trkpt lat="55.335349" lon="26.101718">
<time>2022-05-18T13:09:16Z</time>
</trkpt>
<trkpt lat="55.335373" lon="26.101807">
<time>2022-05-18T13:09:19Z</time>
</trkpt>
<trkpt lat="55.335385" lon="26.101896">
<time>2022-05-18T13:09:22Z</time>
</trkpt>
<trkpt lat="55.335399" lon="26.101964">
<time>2022-05-18T13:09:24Z</time>
</trkpt>
<trkpt lat="55.33547" lon="26.102148">
<time>2022-05-18T13:09:30Z</time>
</trkpt>
<trkpt lat="55.335546" lon="26.102044">
<time>2022-05-18T13:09:35Z</time>
</trkpt>
<trkpt lat="55.33566" lon="26.101853">
<time>2022-05-18T13:09:42Z</time>
</trkpt>
<trkpt lat="55.33574" lon="26.101675">
<time>2022-05-18T13:09:49Z</time>
</trkpt>
<trkpt lat="55.335753" lon="26.101644">
<time>2022-05-18T13:09:50Z</time>
</trkpt>
<trkpt lat="55.335865" lon="26.101349">
<time>2022-05-18T13:10:00Z</time>
</trkpt>
<trkpt lat="55.336015" lon="26.101171">
<time>2022-05-18T13:10:07Z</time>
</trkpt>
<trkpt lat="55.336184" lon="26.101087">
<time>2022-05-18T13:10:11Z</time>
</trkpt>
<trkpt lat="55.336231" lon="26.101055">
<time>2022-05-18T13:10:12Z</time>
</trkpt>
<trkpt lat="55.336305" lon="26.100999">
<time>2022-05-18T13:10:13Z</time>
</trkpt>
<trkpt lat="55.336476" lon="26.10085">
<time>2022-05-18T13:10:16Z</time>
</trkpt>
<trkpt lat="55.336515" lon="26.100828">
<time>2022-05-18T13:10:17Z</time>
</trkpt>
<trkpt lat="55.33663" lon="26.100743">
<time>2022-05-18T13:10:19Z</time>
</trkpt>
<trkpt lat="55.336747" lon="26.100536">
<time>2022-05-18T13:10:22Z</time>
</trkpt>
<trkpt lat="55.336815" lon="26.100409">
<time>2022-05-18T13:10:24Z</time>
</trkpt>
<trkpt lat="55.336934" lon="26.100171">
<time>2022-05-18T13:10:28Z</time>
</trkpt>
<trkpt lat="55.337043" lon="26.099913">
<time>2022-05-18T13:10:32Z</time>
</trkpt>
<trkpt lat="55.337114" lon="26.099743">
<time>2022-05-18T13:10:35Z</time>
</trkpt>
<trkpt lat="55.337239" lon="26.0995">
<time>2022-05-18T13:10:39Z</time>
</trkpt>
<trkpt lat="55.337326" lon="26.099268">
<time>2022-05-18T13:10:42Z</time>
</trkpt>
<trkpt lat="55.33735" lon="26.09918">
<time>2022-05-18T13:10:43Z</time>
</trkpt>
<trkpt lat="55.337387" lon="26.098994">
<time>2022-05-18T13:10:45Z</time>
</trkpt>
<trkpt lat="55.337408" lon="26.098919">
<time>2022-05-18T13:10:46Z</time>
</trkpt>
<trkpt lat="55.337556" lon="26.098409">
<time>2022-05-18T13:10:51Z</time>
</trkpt>
<trkpt lat="55.337607" lon="26.098289">
<time>2022-05-18T13:10:52Z</time>
</trkpt>
<trkpt lat="55.337721" lon="26.098012">
<time>2022-05-18T13:10:55Z</time>
</trkpt>
<trkpt lat="55.337746" lon="26.097933">
<time>2022-05-18T13:10:56Z</time>
</trkpt>
<trkpt lat="55.337788" lon="26.097698">
<time>2022-05-18T13:10:59Z</time>
</trkpt>
<trkpt lat="55.337806" lon="26.097592">
<time>2022-05-18T13:11:00Z</time>
</trkpt>
<trkpt lat="55.337864" lon="26.097276">
<time>2022-05-18T13:11:03Z</time>
</trkpt>
<trkpt lat="55.33789" lon="26.097145">
<time>2022-05-18T13:11:04Z</time>
</trkpt>
<trkpt lat="55.337908" lon="26.096957">
<time>2022-05-18T13:11:06Z</time>
</trkpt>
<trkpt lat="55.337947" lon="26.096807">
<time>2022-05-18T13:11:09Z</time>
</trkpt>
<trkpt lat="55.337998" lon="26.096576">
<time>2022-05-18T13:11:14Z</time>
</trkpt>
<trkpt lat="55.338006" lon="26.096528">
<time>2022-05-18T13:11:15Z</time>
</trkpt>
<trkpt lat="55.338055" lon="26.096363">
<time>2022-05-18T13:11:18Z</time>
</trkpt>
<trkpt lat="55.3381" lon="26.096221">
<time>2022-05-18T13:11:20Z</time>
</trkpt>
<trkpt lat="55.338199" lon="26.095927">
<time>2022-05-18T13:11:24Z</time>
</trkpt>
<trkpt lat="55.338224" lon="26.09586">
<time>2022-05-18T13:11:25Z</time>
</trkpt>
<trkpt lat="55.338248" lon="26.095813">
<time>2022-05-18T13:11:26Z</time>
</trkpt>
<trkpt lat="55.338324" lon="26.0957">
<time>2022-05-18T13:11:28Z</time>
</trkpt>
<trkpt lat="55.338373" lon="26.09561">
<time>2022-05-18T13:11:29Z</time>
</trkpt>
<trkpt lat="55.338623" lon="26.095239">
<time>2022-05-18T13:11:33Z</time>
</trkpt>
<trkpt lat="55.338676" lon="26.095177">
<time>2022-05-18T13:11:34Z</time>
</trkpt>
<trkpt lat="55.338772" lon="26.095079">
<time>2022-05-18T13:11:36Z</time>
</trkpt>
<trkpt lat="55.338893" lon="26.094936">
<time>2022-05-18T13:11:40Z</time>
</trkpt>
<trkpt lat="55.338963" lon="26.094895">
<time>2022-05-18T13:11:43Z</time>
</trkpt>
<trkpt lat="55.339049" lon="26.094905">
<time>2022-05-18T13:11:45Z</time>
</trkpt>
<trkpt lat="55.339094" lon="26.094897">
<time>2022-05-18T13:11:46Z</time>
</trkpt>
<trkpt lat="55.339215" lon="26.094856">
<time>2022-05-18T13:11:49Z</time>
</trkpt>
<trkpt lat="55.339269" lon="26.094829">
<time>2022-05-18T13:11:50Z</time>
</trkpt>
<trkpt lat="55.339406" lon="26.0948">
<time>2022-05-18T13:11:53Z</time>
</trkpt>
<trkpt lat="55.33954" lon="26.094842">
<time>2022-05-18T13:11:56Z</time>
</trkpt>
<trkpt lat="55.339599" lon="26.094888">
<time>2022-05-18T13:11:59Z</time>
</trkpt>
<trkpt lat="55.339645" lon="26.095026">
<time>2022-05-18T13:12:02Z</time>
</trkpt>
<trkpt lat="55.339669" lon="26.095082">
<time>2022-05-18T13:12:03Z</time>
</trkpt>
<trkpt lat="55.339805" lon="26.09541">
<time>2022-05-18T13:12:08Z</time>
</trkpt>
<trkpt lat="55.339821" lon="26.095483">
<time>2022-05-18T13:12:09Z</time>
</trkpt>
<trkpt lat="55.339864" lon="26.095692">
<time>2022-05-18T13:12:11Z</time>
</trkpt>
<trkpt lat="55.339888" lon="26.095776">
<time>2022-05-18T13:12:12Z</time>
</trkpt>
<trkpt lat="55.339924" lon="26.095926">
<time>2022-05-18T13:12:14Z</time>
</trkpt>
<trkpt lat="55.339926" lon="26.096082">
<time>2022-05-18T13:12:16Z</time>
</trkpt>
<trkpt lat="55.339972" lon="26.096259">
<time>2022-05-18T13:12:19Z</time>
</trkpt>
<trkpt lat="55.340012" lon="26.096372">
<time>2022-05-18T13:12:21Z</time>
</trkpt>
<trkpt lat="55.340052" lon="26.096503">
<time>2022-05-18T13:12:23Z</time>
</trkpt>
<trkpt lat="55.340069" lon="26.096584">
<time>2022-05-18T13:12:24Z</time>
</trkpt>
<trkpt lat="55.340075" lon="26.096675">
<time>2022-05-18T13:12:25Z</time>
</trkpt>
<trkpt lat="55.34007" lon="26.096872">
<time>2022-05-18T13:12:27Z</time>
</trkpt>
<trkpt lat="55.340056" lon="26.096974">
<time>2022-05-18T13:12:28Z</time>
</trkpt>
<trkpt lat="55.33995" lon="26.097439">
<time>2022-05-18T13:12:33Z</time>
</trkpt>
<trkpt lat="55.339898" lon="26.097633">
<time>2022-05-18T13:12:35Z</time>
</trkpt>
<trkpt lat="55.339772" lon="26.098181">
<time>2022-05-18T13:12:41Z</time>
</trkpt>
<trkpt lat="55.339649" lon="26.098886">
<time>2022-05-18T13:12:48Z</time>
</trkpt>
<trkpt lat="55.339565" lon="26.099291">
<time>2022-05-18T13:12:53Z</time>
</trkpt>
<trkpt lat="55.339446" lon="26.099711">
<time>2022-05-18T13:12:59Z</time>
</trkpt>
<trkpt lat="55.339414" lon="26.099794">
<time>2022-05-18T13:13:00Z</time>
</trkpt>
<trkpt lat="55.339358" lon="26.099968">
<time>2022-05-18T13:13:02Z</time>
</trkpt>
<trkpt lat="55.339304" lon="26.100155">
<time>2022-05-18T13:13:04Z</time>
</trkpt>
<trkpt lat="55.33929" lon="26.100246">
<time>2022-05-18T13:13:05Z</time>
</trkpt>
<trkpt lat="55.339271" lon="26.100625">
<time>2022-05-18T13:13:09Z</time>
</trkpt>
<trkpt lat="55.339271" lon="26.100926">
<time>2022-05-18T13:13:12Z</time>
</trkpt>
<trkpt lat="55.339258" lon="26.101227">
<time>2022-05-18T13:13:15Z</time>
</trkpt>
<trkpt lat="55.33919" lon="26.101783">
<time>2022-05-18T13:13:21Z</time>
</trkpt>
<trkpt lat="55.339158" lon="26.10204">
<time>2022-05-18T13:13:24Z</time>
</trkpt>
<trkpt lat="55.339085" lon="26.102278">
<time>2022-05-18T13:13:27Z</time>
</trkpt>
<trkpt lat="55.339004" lon="26.102632">
<time>2022-05-18T13:13:31Z</time>
</trkpt>
<trkpt lat="55.338975" lon="26.102899">
<time>2022-05-18T13:13:34Z</time>
</trkpt>
<trkpt lat="55.338929" lon="26.103411">
<time>2022-05-18T13:13:39Z</time>
</trkpt>
<trkpt lat="55.338893" lon="26.104148">
<time>2022-05-18T13:13:47Z</time>
</trkpt>
<trkpt lat="55.338886" lon="26.10424">
<time>2022-05-18T13:13:48Z</time>
</trkpt>
<trkpt lat="55.338878" lon="26.104505">
<time>2022-05-18T13:13:51Z</time>
</trkpt>
<trkpt lat="55.338878" lon="26.104586">
<time>2022-05-18T13:13:52Z</time>
</trkpt>
<trkpt lat="55.338879" lon="26.104767">
<time>2022-05-18T13:13:54Z</time>
</trkpt>
<trkpt lat="55.338911" lon="26.104949">
<time>2022-05-18T13:13:56Z</time>
</trkpt>
<trkpt lat="55.338946" lon="26.105046">
<time>2022-05-18T13:13:57Z</time>
</trkpt>
<trkpt lat="55.339029" lon="26.105537">
<time>2022-05-18T13:14:03Z</time>
</trkpt>
<trkpt lat="55.339045" lon="26.105606">
<time>2022-05-18T13:14:04Z</time>
</trkpt>
<trkpt lat="55.339066" lon="26.105675">
<time>2022-05-18T13:14:05Z</time>
</trkpt>
<trkpt lat="55.339187" lon="26.106089">
<time>2022-05-18T13:14:11Z</time>
</trkpt>
<trkpt lat="55.339243" lon="26.106251">
<time>2022-05-18T13:14:15Z</time>
</trkpt>
<trkpt lat="55.339263" lon="26.106295">
<time>2022-05-18T13:14:16Z</time>
</trkpt>
<trkpt lat="55.339351" lon="26.106469">
<time>2022-05-18T13:14:19Z</time>
</trkpt>
<trkpt lat="55.339402" lon="26.10659">
<time>2022-05-18T13:14:21Z</time>
</trkpt>
<trkpt lat="55.339431" lon="26.106711">
<time>2022-05-18T13:14:23Z</time>
</trkpt>
<trkpt lat="55.339446" lon="26.106782">
<time>2022-05-18T13:14:24Z</time>
</trkpt>
<trkpt lat="55.339428" lon="26.106868">
<time>2022-05-18T13:14:26Z</time>
</trkpt>
<trkpt lat="55.339396" lon="26.106897">
<time>2022-05-18T13:14:27Z</time>
</trkpt>
<trkpt lat="55.339363" lon="26.10691">
<time>2022-05-18T13:14:28Z</time>
</trkpt>
<trkpt lat="55.339266" lon="26.106981">
<time>2022-05-18T13:14:31Z</time>
</trkpt>
<trkpt lat="55.339223" lon="26.107005">
<time>2022-05-18T13:14:32Z</time>
</trkpt>
<trkpt lat="55.339073" lon="26.107114">
<time>2022-05-18T13:14:35Z</time>
</trkpt>
<trkpt lat="55.338974" lon="26.107187">
<time>2022-05-18T13:14:37Z</time>
</trkpt>
<trkpt lat="55.338861" lon="26.107211">
<time>2022-05-18T13:14:39Z</time>
</trkpt>
<trkpt lat="55.3388" lon="26.107219">
<time>2022-05-18T13:14:40Z</time>
</trkpt>
<trkpt lat="55.338371" lon="26.107263">
<time>2022-05-18T13:14:48Z</time>
</trkpt>
<trkpt lat="55.338236" lon="26.107277">
<time>2022-05-18T13:14:51Z</time>
</trkpt>
<trkpt lat="55.338149" lon="26.107265">
<time>2022-05-18T13:14:53Z</time>
</trkpt>
<trkpt lat="55.337994" lon="26.107249">
<time>2022-05-18T13:14:57Z</time>
</trkpt>
<trkpt lat="55.337924" lon="26.107216">
<time>2022-05-18T13:14:59Z</time>
</trkpt>
<trkpt lat="55.337841" lon="26.107181">
<time>2022-05-18T13:15:01Z</time>
</trkpt>
<trkpt lat="55.337744" lon="26.107182">
<time>2022-05-18T13:15:03Z</time>
</trkpt>
<trkpt lat="55.337651" lon="26.107225">
<time>2022-05-18T13:15:05Z</time>
</trkpt>
<trkpt lat="55.33756" lon="26.107214">
<time>2022-05-18T13:15:07Z</time>
</trkpt>
<trkpt lat="55.337373" lon="26.107161">
<time>2022-05-18T13:15:10Z</time>
</trkpt>
<trkpt lat="55.337313" lon="26.107155">
<time>2022-05-18T13:15:11Z</time>
</trkpt>
<trkpt lat="55.337184" lon="26.107134">
<time>2022-05-18T13:15:14Z</time>
</trkpt>
<trkpt lat="55.337167" lon="26.107103">
<time>2022-05-18T13:15:15Z</time>
</trkpt>
<trkpt lat="55.33707" lon="26.107074">
<time>2022-05-18T13:15:19Z</time>
</trkpt>
<trkpt lat="55.336959" lon="26.107116">
<time>2022-05-18T13:15:25Z</time>
</trkpt>
<trkpt lat="55.336852" lon="26.107258">
<time>2022-05-18T13:15:30Z</time>
</trkpt>
<trkpt lat="55.336843" lon="26.107302">
<time>2022-05-18T13:15:31Z</time>
</trkpt>
<trkpt lat="55.336835" lon="26.107459">
<time>2022-05-18T13:15:34Z</time>
</trkpt>
<trkpt lat="55.336847" lon="26.107532">
<time>2022-05-18T13:15:36Z</time>
</trkpt>
<trkpt lat="55.336866" lon="26.107662">
<time>2022-05-18T13:15:40Z</time>
</trkpt>
<trkpt lat="55.33687" lon="26.107859">
<time>2022-05-18T13:15:44Z</time>
</trkpt>
<trkpt lat="55.33687" lon="26.107896">
<time>2022-05-18T13:15:45Z</time>
</trkpt>
<trkpt lat="55.336869" lon="26.10797">
<time>2022-05-18T13:15:49Z</time>
</trkpt>
<trkpt lat="55.336855" lon="26.107955">
<time>2022-05-18T13:15:54Z</time>
</trkpt>
<trkpt lat="55.336837" lon="26.107951">
<time>2022-05-18T13:16:05Z</time>
</trkpt>
<trkpt lat="55.336837" lon="26.107951">
<time>2022-05-18T13:16:08Z</time>
</trkpt>
<trkpt lat="55.336844" lon="26.107951">
<time>2022-05-18T13:16:11Z</time>
</trkpt>
<trkpt lat="55.336851" lon="26.107922">
<time>2022-05-18T13:16:18Z</time>
</trkpt>
<trkpt lat="55.336851" lon="26.107922">
<time>2022-05-18T13:16:19Z</time>
</trkpt>
<trkpt lat="55.336844" lon="26.10792">
<time>2022-05-18T13:16:26Z</time>
</trkpt>
<trkpt lat="55.336844" lon="26.10792">
<time>2022-05-18T13:16:27Z</time>
</trkpt>
<trkpt lat="55.336844" lon="26.10792">
<time>2022-05-18T13:16:29Z</time>
</trkpt>
<trkpt lat="55.336835" lon="26.10792">
<time>2022-05-18T13:16:33Z</time>
</trkpt>
<trkpt lat="55.33683" lon="26.107938">
<time>2022-05-18T13:16:36Z</time>
</trkpt>
<trkpt lat="55.336816" lon="26.107995">
<time>2022-05-18T13:16:54Z</time>
</trkpt>
<trkpt lat="55.336818" lon="26.107998">
<time>2022-05-18T13:16:59Z</time>
</trkpt>
<trkpt lat="55.336817" lon="26.108015">
<time>2022-05-18T13:17:04Z</time>
</trkpt>
<trkpt lat="55.336813" lon="26.108017">
<time>2022-05-18T13:17:06Z</time>
</trkpt>
<trkpt lat="55.336789" lon="26.108017">
<time>2022-05-18T13:17:08Z</time>
</trkpt>
<trkpt lat="55.336773" lon="26.10802">
<time>2022-05-18T13:17:09Z</time>
</trkpt>
<trkpt lat="55.336741" lon="26.108025">
<time>2022-05-18T13:17:11Z</time>
</trkpt>
<trkpt lat="55.336727" lon="26.108022">
<time>2022-05-18T13:17:12Z</time>
</trkpt>
<trkpt lat="55.336692" lon="26.108012">
<time>2022-05-18T13:17:14Z</time>
</trkpt>
<trkpt lat="55.336668" lon="26.108008">
<time>2022-05-18T13:17:16Z</time>
</trkpt>
<trkpt lat="55.336649" lon="26.108013">
<time>2022-05-18T13:17:18Z</time>
</trkpt>
<trkpt lat="55.336621" lon="26.107998">
<time>2022-05-18T13:17:20Z</time>
</trkpt>
<trkpt lat="55.336594" lon="26.107984">
<time>2022-05-18T13:17:23Z</time>
</trkpt>
<trkpt lat="55.336572" lon="26.107998">
<time>2022-05-18T13:17:26Z</time>
</trkpt>
<trkpt lat="55.336491" lon="26.107982">
<time>2022-05-18T13:17:33Z</time>
</trkpt>
<trkpt lat="55.336484" lon="26.10796">
<time>2022-05-18T13:17:38Z</time>
</trkpt>
<trkpt lat="55.336469" lon="26.10796">
<time>2022-05-18T13:17:39Z</time>
</trkpt>
<trkpt lat="55.336444" lon="26.107956">
<time>2022-05-18T13:17:42Z</time>
</trkpt>
<trkpt lat="55.336417" lon="26.107954">
<time>2022-05-18T13:17:46Z</time>
</trkpt>
<trkpt lat="55.33639" lon="26.10795">
<time>2022-05-18T13:17:49Z</time>
</trkpt>
<trkpt lat="55.336329" lon="26.107895">
<time>2022-05-18T13:17:54Z</time>
</trkpt>
<trkpt lat="55.336272" lon="26.107884">
<time>2022-05-18T13:17:58Z</time>
</trkpt>
<trkpt lat="55.336203" lon="26.107897">
<time>2022-05-18T13:18:05Z</time>
</trkpt>
<trkpt lat="55.336091" lon="26.107905">
<time>2022-05-18T13:18:14Z</time>
</trkpt>
<trkpt lat="55.335942" lon="26.107867">
<time>2022-05-18T13:18:19Z</time>
</trkpt>
<trkpt lat="55.335696" lon="26.107871">
<time>2022-05-18T13:18:25Z</time>
</trkpt>
<trkpt lat="55.335432" lon="26.107831">
<time>2022-05-18T13:18:31Z</time>
</trkpt>
<trkpt lat="55.335322" lon="26.107784">
<time>2022-05-18T13:18:34Z</time>
</trkpt>
<trkpt lat="55.335183" lon="26.107732">
<time>2022-05-18T13:18:37Z</time>
</trkpt>
<trkpt lat="55.334831" lon="26.107685">
<time>2022-05-18T13:18:44Z</time>
</trkpt>
<trkpt lat="55.334457" lon="26.107624">
<time>2022-05-18T13:18:51Z</time>
</trkpt>
<trkpt lat="55.334117" lon="26.107601">
<time>2022-05-18T13:18:58Z</time>
</trkpt>
<trkpt lat="55.334034" lon="26.107551">
<time>2022-05-18T13:19:00Z</time>
</trkpt>
<trkpt lat="55.33397" lon="26.107452">
<time>2022-05-18T13:19:02Z</time>
</trkpt>
<trkpt lat="55.333963" lon="26.107316">
<time>2022-05-18T13:19:04Z</time>
</trkpt>
<trkpt lat="55.333965" lon="26.107216">
<time>2022-05-18T13:19:05Z</time>
</trkpt>
<trkpt lat="55.333982" lon="26.107121">
<time>2022-05-18T13:19:06Z</time>
</trkpt>
<trkpt lat="55.334045" lon="26.106866">
<time>2022-05-18T13:19:09Z</time>
</trkpt>
<trkpt lat="55.334059" lon="26.10676">
<time>2022-05-18T13:19:10Z</time>
</trkpt>
<trkpt lat="55.334094" lon="26.106387">
<time>2022-05-18T13:19:13Z</time>
</trkpt>
<trkpt lat="55.33411" lon="26.106242">
<time>2022-05-18T13:19:14Z</time>
</trkpt>
<trkpt lat="55.334152" lon="26.105968">
<time>2022-05-18T13:19:16Z</time>
</trkpt>
<trkpt lat="55.334233" lon="26.105504">
<time>2022-05-18T13:19:19Z</time>
</trkpt>
<trkpt lat="55.334271" lon="26.105369">
<time>2022-05-18T13:19:20Z</time>
</trkpt>
<trkpt lat="55.334477" lon="26.104735">
<time>2022-05-18T13:19:25Z</time>
</trkpt>
<trkpt lat="55.334521" lon="26.104631">
<time>2022-05-18T13:19:26Z</time>
</trkpt>
<trkpt lat="55.334625" lon="26.104476">
<time>2022-05-18T13:19:28Z</time>
</trkpt>
<trkpt lat="55.334679" lon="26.104408">
<time>2022-05-18T13:19:29Z</time>
</trkpt>
<trkpt lat="55.33496" lon="26.103954">
<time>2022-05-18T13:19:35Z</time>
</trkpt>
<trkpt lat="55.335064" lon="26.103797">
<time>2022-05-18T13:19:37Z</time>
</trkpt>
<trkpt lat="55.335162" lon="26.103571">
<time>2022-05-18T13:19:39Z</time>
</trkpt>
<trkpt lat="55.335205" lon="26.103434">
<time>2022-05-18T13:19:40Z</time>
</trkpt>
<trkpt lat="55.335239" lon="26.103282">
<time>2022-05-18T13:19:41Z</time>
</trkpt>
<trkpt lat="55.335287" lon="26.102964">
<time>2022-05-18T13:19:43Z</time>
</trkpt>
<trkpt lat="55.335314" lon="26.102812">
<time>2022-05-18T13:19:44Z</time>
</trkpt>
<trkpt lat="55.335413" lon="26.102377">
<time>2022-05-18T13:19:47Z</time>
</trkpt>
<trkpt lat="55.335425" lon="26.10224">
<time>2022-05-18T13:19:48Z</time>
</trkpt>
<trkpt lat="55.335394" lon="26.101967">
<time>2022-05-18T13:19:51Z</time>
</trkpt>
<trkpt lat="55.335391" lon="26.101908">
<time>2022-05-18T13:19:52Z</time>
</trkpt>
<trkpt lat="55.335382" lon="26.10168">
<time>2022-05-18T13:19:55Z</time>
</trkpt>
<trkpt lat="55.33537" lon="26.101576">
<time>2022-05-18T13:19:56Z</time>
</trkpt>
<trkpt lat="55.335311" lon="26.101213">
<time>2022-05-18T13:19:59Z</time>
</trkpt>
<trkpt lat="55.335251" lon="26.100956">
<time>2022-05-18T13:20:01Z</time>
</trkpt>
<trkpt lat="55.335165" lon="26.100727">
<time>2022-05-18T13:20:03Z</time>
</trkpt>
<trkpt lat="55.335031" lon="26.100402">
<time>2022-05-18T13:20:06Z</time>
</trkpt>
<trkpt lat="55.334874" lon="26.100086">
<time>2022-05-18T13:20:10Z</time>
</trkpt>
<trkpt lat="55.334839" lon="26.100034">
<time>2022-05-18T13:20:11Z</time>
</trkpt>
<trkpt lat="55.334737" lon="26.099937">
<time>2022-05-18T13:20:13Z</time>
</trkpt>
<trkpt lat="55.334679" lon="26.099897">
<time>2022-05-18T13:20:14Z</time>
</trkpt>
<trkpt lat="55.334552" lon="26.099842">
<time>2022-05-18T13:20:16Z</time>
</trkpt>
<trkpt lat="55.334405" lon="26.099857">
<time>2022-05-18T13:20:18Z</time>
</trkpt>
<trkpt lat="55.334337" lon="26.099898">
<time>2022-05-18T13:20:19Z</time>
</trkpt>
<trkpt lat="55.33411" lon="26.100023">
<time>2022-05-18T13:20:22Z</time>
</trkpt>
<trkpt lat="55.333929" lon="26.10006">
<time>2022-05-18T13:20:25Z</time>
</trkpt>
<trkpt lat="55.333824" lon="26.100004">
<time>2022-05-18T13:20:27Z</time>
</trkpt>
<trkpt lat="55.333605" lon="26.099873">
<time>2022-05-18T13:20:31Z</time>
</trkpt>
<trkpt lat="55.333568" lon="26.099833">
<time>2022-05-18T13:20:32Z</time>
</trkpt>
<trkpt lat="55.333533" lon="26.099773">
<time>2022-05-18T13:20:33Z</time>
</trkpt>
<trkpt lat="55.333468" lon="26.099633">
<time>2022-05-18T13:20:35Z</time>
</trkpt>
<trkpt lat="55.333387" lon="26.099499">
<time>2022-05-18T13:20:37Z</time>
</trkpt>
<trkpt lat="55.33327" lon="26.09944">
<time>2022-05-18T13:20:39Z</time>
</trkpt>
<trkpt lat="55.333192" lon="26.099415">
<time>2022-05-18T13:20:41Z</time>
</trkpt>
<trkpt lat="55.333172" lon="26.099376">
<time>2022-05-18T13:20:42Z</time>
</trkpt>
<trkpt lat="55.333174" lon="26.09937">
<time>2022-05-18T13:20:44Z</time>
</trkpt>
<trkpt lat="55.3333" lon="26.099503">
<time>2022-05-18T13:20:48Z</time>
</trkpt>
<trkpt lat="55.333421" lon="26.099628">
<time>2022-05-18T13:20:51Z</time>
</trkpt>
<trkpt lat="55.333461" lon="26.099684">
<time>2022-05-18T13:20:52Z</time>
</trkpt>
<trkpt lat="55.333565" lon="26.099839">
<time>2022-05-18T13:20:55Z</time>
</trkpt>
<trkpt lat="55.33364" lon="26.099916">
<time>2022-05-18T13:20:57Z</time>
</trkpt>
<trkpt lat="55.333812" lon="26.100007">
<time>2022-05-18T13:21:02Z</time>
</trkpt>
<trkpt lat="55.333915" lon="26.100082">
<time>2022-05-18T13:21:06Z</time>
</trkpt>
<trkpt lat="55.333991" lon="26.100092">
<time>2022-05-18T13:21:08Z</time>
</trkpt>
<trkpt lat="55.33416" lon="26.100009">
<time>2022-05-18T13:21:12Z</time>
</trkpt>
<trkpt lat="55.334212" lon="26.099982">
<time>2022-05-18T13:21:13Z</time>
</trkpt>
<trkpt lat="55.334442" lon="26.099894">
<time>2022-05-18T13:21:17Z</time>
</trkpt>
<trkpt lat="55.334497" lon="26.099895">
<time>2022-05-18T13:21:18Z</time>
</trkpt>
<trkpt lat="55.334595" lon="26.099923">
<time>2022-05-18T13:21:20Z</time>
</trkpt>
<trkpt lat="55.334694" lon="26.099979">
<time>2022-05-18T13:21:23Z</time>
</trkpt>
<trkpt lat="55.334725" lon="26.100009">
<time>2022-05-18T13:21:24Z</time>
</trkpt>
<trkpt lat="55.334772" lon="26.100065">
<time>2022-05-18T13:21:25Z</time>
</trkpt>
<trkpt lat="55.334926" lon="26.100287">
<time>2022-05-18T13:21:29Z</time>
</trkpt>
<trkpt lat="55.334958" lon="26.100358">
<time>2022-05-18T13:21:30Z</time>
</trkpt>
<trkpt lat="55.335105" lon="26.100693">
<time>2022-05-18T13:21:34Z</time>
</trkpt>
<trkpt lat="55.33522" lon="26.100947">
<time>2022-05-18T13:21:37Z</time>
</trkpt>
<trkpt lat="55.335264" lon="26.101117">
<time>2022-05-18T13:21:39Z</time>
</trkpt>
<trkpt lat="55.335315" lon="26.101519">
<time>2022-05-18T13:21:44Z</time>
</trkpt>
<trkpt lat="55.335357" lon="26.101678">
<time>2022-05-18T13:21:48Z</time>
</trkpt>
<trkpt lat="55.335356" lon="26.10172">
<time>2022-05-18T13:21:49Z</time>
</trkpt>
<trkpt lat="55.335363" lon="26.101821">
<time>2022-05-18T13:21:52Z</time>
</trkpt>
<trkpt lat="55.3354" lon="26.101938">
<time>2022-05-18T13:21:56Z</time>
</trkpt>
<trkpt lat="55.335433" lon="26.102056">
<time>2022-05-18T13:22:00Z</time>
</trkpt>
<trkpt lat="55.335482" lon="26.102152">
<time>2022-05-18T13:22:04Z</time>
</trkpt>
<trkpt lat="55.335566" lon="26.102094">
<time>2022-05-18T13:22:09Z</time>
</trkpt>
<trkpt lat="55.335701" lon="26.101834">
<time>2022-05-18T13:22:19Z</time>
</trkpt>
<trkpt lat="55.335776" lon="26.101658">
<time>2022-05-18T13:22:27Z</time>
</trkpt>
<trkpt lat="55.335886" lon="26.101368">
<time>2022-05-18T13:22:35Z</time>
</trkpt>
<trkpt lat="55.336047" lon="26.101147">
<time>2022-05-18T13:22:42Z</time>
</trkpt>
<trkpt lat="55.336302" lon="26.100998">
<time>2022-05-18T13:22:48Z</time>
</trkpt>
<trkpt lat="55.336458" lon="26.100841">
<time>2022-05-18T13:22:51Z</time>
</trkpt>
<trkpt lat="55.336568" lon="26.100778">
<time>2022-05-18T13:22:53Z</time>
</trkpt>
<trkpt lat="55.336616" lon="26.10074">
<time>2022-05-18T13:22:54Z</time>
</trkpt>
<trkpt lat="55.336691" lon="26.100643">
<time>2022-05-18T13:22:56Z</time>
</trkpt>
<trkpt lat="55.336755" lon="26.100527">
<time>2022-05-18T13:22:58Z</time>
</trkpt>
<trkpt lat="55.33681" lon="26.100421">
<time>2022-05-18T13:23:00Z</time>
</trkpt>
<trkpt lat="55.336898" lon="26.100222">
<time>2022-05-18T13:23:03Z</time>
</trkpt>
<trkpt lat="55.337007" lon="26.099952">
<time>2022-05-18T13:23:07Z</time>
</trkpt>
<trkpt lat="55.337043" lon="26.099844">
<time>2022-05-18T13:23:09Z</time>
</trkpt>
<trkpt lat="55.337104" lon="26.099665">
<time>2022-05-18T13:23:12Z</time>
</trkpt>
<trkpt lat="55.337166" lon="26.099521">
<time>2022-05-18T13:23:14Z</time>
</trkpt>
<trkpt lat="55.337282" lon="26.099196">
<time>2022-05-18T13:23:18Z</time>
</trkpt>
<trkpt lat="55.337324" lon="26.098999">
<time>2022-05-18T13:23:20Z</time>
</trkpt>
<trkpt lat="55.337359" lon="26.098903">
<time>2022-05-18T13:23:21Z</time>
</trkpt>
<trkpt lat="55.337465" lon="26.09863">
<time>2022-05-18T13:23:24Z</time>
</trkpt>
<trkpt lat="55.337533" lon="26.098444">
<time>2022-05-18T13:23:26Z</time>
</trkpt>
<trkpt lat="55.337618" lon="26.098252">
<time>2022-05-18T13:23:28Z</time>
</trkpt>
<trkpt lat="55.337734" lon="26.09792">
<time>2022-05-18T13:23:32Z</time>
</trkpt>
<trkpt lat="55.337765" lon="26.097765">
<time>2022-05-18T13:23:34Z</time>
</trkpt>
<trkpt lat="55.337809" lon="26.097523">
<time>2022-05-18T13:23:37Z</time>
</trkpt>
<trkpt lat="55.337861" lon="26.097257">
<time>2022-05-18T13:23:41Z</time>
</trkpt>
<trkpt lat="55.337872" lon="26.097168">
<time>2022-05-18T13:23:42Z</time>
</trkpt>
<trkpt lat="55.337879" lon="26.096986">
<time>2022-05-18T13:23:45Z</time>
</trkpt>
<trkpt lat="55.337885" lon="26.096945">
<time>2022-05-18T13:23:46Z</time>
</trkpt>
<trkpt lat="55.337935" lon="26.096833">
<time>2022-05-18T13:23:49Z</time>
</trkpt>
<trkpt lat="55.337957" lon="26.096762">
<time>2022-05-18T13:23:51Z</time>
</trkpt>
<trkpt lat="55.338002" lon="26.096539">
<time>2022-05-18T13:23:56Z</time>
</trkpt>
<trkpt lat="55.338023" lon="26.096476">
<time>2022-05-18T13:23:57Z</time>
</trkpt>
<trkpt lat="55.338108" lon="26.096196">
<time>2022-05-18T13:24:01Z</time>
</trkpt>
<trkpt lat="55.33815" lon="26.096058">
<time>2022-05-18T13:24:03Z</time>
</trkpt>
<trkpt lat="55.338204" lon="26.095923">
<time>2022-05-18T13:24:05Z</time>
</trkpt>
<trkpt lat="55.338239" lon="26.095847">
<time>2022-05-18T13:24:06Z</time>
</trkpt>
<trkpt lat="55.338269" lon="26.095771">
<time>2022-05-18T13:24:07Z</time>
</trkpt>
<trkpt lat="55.338405" lon="26.095549">
<time>2022-05-18T13:24:10Z</time>
</trkpt>
<trkpt lat="55.338568" lon="26.095319">
<time>2022-05-18T13:24:12Z</time>
</trkpt>
<trkpt lat="55.338702" lon="26.095152">
<time>2022-05-18T13:24:14Z</time>
</trkpt>
<trkpt lat="55.338853" lon="26.094974">
<time>2022-05-18T13:24:17Z</time>
</trkpt>
<trkpt lat="55.338897" lon="26.094929">
<time>2022-05-18T13:24:18Z</time>
</trkpt>
<trkpt lat="55.339001" lon="26.094881">
<time>2022-05-18T13:24:21Z</time>
</trkpt>
<trkpt lat="55.339096" lon="26.094867">
<time>2022-05-18T13:24:23Z</time>
</trkpt>
<trkpt lat="55.33927" lon="26.094823">
<time>2022-05-18T13:24:26Z</time>
</trkpt>
<trkpt lat="55.339439" lon="26.094785">
<time>2022-05-18T13:24:29Z</time>
</trkpt>
<trkpt lat="55.339491" lon="26.094793">
<time>2022-05-18T13:24:30Z</time>
</trkpt>
<trkpt lat="55.339591" lon="26.094831">
<time>2022-05-18T13:24:32Z</time>
</trkpt>
<trkpt lat="55.339735" lon="26.094854">
<time>2022-05-18T13:24:35Z</time>
</trkpt>
<trkpt lat="55.339783" lon="26.09484">
<time>2022-05-18T13:24:36Z</time>
</trkpt>
<trkpt lat="55.339831" lon="26.094812">
<time>2022-05-18T13:24:37Z</time>
</trkpt>
<trkpt lat="55.339921" lon="26.094787">
<time>2022-05-18T13:24:39Z</time>
</trkpt>
<trkpt lat="55.339966" lon="26.0948">
<time>2022-05-18T13:24:40Z</time>
</trkpt>
<trkpt lat="55.340051" lon="26.094825">
<time>2022-05-18T13:24:43Z</time>
</trkpt>
<trkpt lat="55.340052" lon="26.094671">
<time>2022-05-18T13:24:47Z</time>
</trkpt>
<trkpt lat="55.340081" lon="26.094615">
<time>2022-05-18T13:24:49Z</time>
</trkpt>
<trkpt lat="55.340107" lon="26.094621">
<time>2022-05-18T13:24:50Z</time>
</trkpt>
<trkpt lat="55.34018" lon="26.094666">
<time>2022-05-18T13:24:52Z</time>
</trkpt>
<trkpt lat="55.340268" lon="26.094743">
<time>2022-05-18T13:24:54Z</time>
</trkpt>
<trkpt lat="55.340317" lon="26.094809">
<time>2022-05-18T13:24:55Z</time>
</trkpt>
<trkpt lat="55.340581" lon="26.095144">
<time>2022-05-18T13:25:00Z</time>
</trkpt>
<trkpt lat="55.340635" lon="26.095211">
<time>2022-05-18T13:25:01Z</time>
</trkpt>
<trkpt lat="55.340762" lon="26.095398">
<time>2022-05-18T13:25:04Z</time>
</trkpt>
<trkpt lat="55.34088" lon="26.095659">
<time>2022-05-18T13:25:07Z</time>
</trkpt>
<trkpt lat="55.34091" lon="26.095749">
<time>2022-05-18T13:25:08Z</time>
</trkpt>
<trkpt lat="55.341" lon="26.096054">
<time>2022-05-18T13:25:11Z</time>
</trkpt>
<trkpt lat="55.34103" lon="26.096161">
<time>2022-05-18T13:25:12Z</time>
</trkpt>
<trkpt lat="55.341155" lon="26.096601">
<time>2022-05-18T13:25:16Z</time>
</trkpt>
<trkpt lat="55.341219" lon="26.096864">
<time>2022-05-18T13:25:18Z</time>
</trkpt>
<trkpt lat="55.341331" lon="26.097314">
<time>2022-05-18T13:25:22Z</time>
</trkpt>
<trkpt lat="55.341399" lon="26.097626">
<time>2022-05-18T13:25:25Z</time>
</trkpt>
<trkpt lat="55.341569" lon="26.098278">
<time>2022-05-18T13:25:31Z</time>
</trkpt>
<trkpt lat="55.341818" lon="26.098961">
<time>2022-05-18T13:25:37Z</time>
</trkpt>
<trkpt lat="55.342124" lon="26.099395">
<time>2022-05-18T13:25:42Z</time>
</trkpt>
<trkpt lat="55.342386" lon="26.099737">
<time>2022-05-18T13:25:47Z</time>
</trkpt>
<trkpt lat="55.34277" lon="26.10022">
<time>2022-05-18T13:25:54Z</time>
</trkpt>
<trkpt lat="55.342955" lon="26.100485">
<time>2022-05-18T13:25:57Z</time>
</trkpt>
<trkpt lat="55.343054" lon="26.100671">
<time>2022-05-18T13:25:59Z</time>
</trkpt>
<trkpt lat="55.343371" lon="26.101302">
<time>2022-05-18T13:26:05Z</time>
</trkpt>
<trkpt lat="55.343786" lon="26.101874">
<time>2022-05-18T13:26:11Z</time>
</trkpt>
<trkpt lat="55.344095" lon="26.10227">
<time>2022-05-18T13:26:16Z</time>
</trkpt>
<trkpt lat="55.344217" lon="26.102384">
<time>2022-05-18T13:26:19Z</time>
</trkpt>
<trkpt lat="55.344361" lon="26.10242">
<time>2022-05-18T13:26:24Z</time>
</trkpt>
<trkpt lat="55.34444" lon="26.102455">
<time>2022-05-18T13:26:29Z</time>
</trkpt>
<trkpt lat="55.344587" lon="26.102595">
<time>2022-05-18T13:26:35Z</time>
</trkpt>
<trkpt lat="55.344749" lon="26.102618">
<time>2022-05-18T13:26:40Z</time>
</trkpt>
<trkpt lat="55.344967" lon="26.102591">
<time>2022-05-18T13:26:46Z</time>
</trkpt>
<trkpt lat="55.345134" lon="26.10269">
<time>2022-05-18T13:26:51Z</time>
</trkpt>
<trkpt lat="55.3453" lon="26.102738">
<time>2022-05-18T13:26:55Z</time>
</trkpt>
<trkpt lat="55.345383" lon="26.102788">
<time>2022-05-18T13:26:57Z</time>
</trkpt>
<trkpt lat="55.345684" lon="26.103018">
<time>2022-05-18T13:27:05Z</time>
</trkpt>
<trkpt lat="55.345736" lon="26.103031">
<time>2022-05-18T13:27:06Z</time>
</trkpt>
<trkpt lat="55.346014" lon="26.103096">
<time>2022-05-18T13:27:12Z</time>
</trkpt>
<trkpt lat="55.346182" lon="26.103139">
<time>2022-05-18T13:27:15Z</time>
</trkpt>
<trkpt lat="55.346241" lon="26.103114">
<time>2022-05-18T13:27:16Z</time>
</trkpt>
<trkpt lat="55.346269" lon="26.103064">
<time>2022-05-18T13:27:17Z</time>
</trkpt>
<trkpt lat="55.346285" lon="26.102995">
<time>2022-05-18T13:27:18Z</time>
</trkpt>
<trkpt lat="55.346323" lon="26.102751">
<time>2022-05-18T13:27:21Z</time>
</trkpt>
<trkpt lat="55.346374" lon="26.102571">
<time>2022-05-18T13:27:24Z</time>
</trkpt>
<trkpt lat="55.346476" lon="26.102">
<time>2022-05-18T13:27:28Z</time>
</trkpt>
<trkpt lat="55.346526" lon="26.101323">
<time>2022-05-18T13:27:33Z</time>
</trkpt>
<trkpt lat="55.346523" lon="26.101076">
<time>2022-05-18T13:27:35Z</time>
</trkpt>
<trkpt lat="55.346458" lon="26.100407">
<time>2022-05-18T13:27:40Z</time>
</trkpt>
<trkpt lat="55.346429" lon="26.100267">
<time>2022-05-18T13:27:41Z</time>
</trkpt>
<trkpt lat="55.346326" lon="26.099926">
<time>2022-05-18T13:27:44Z</time>
</trkpt>
<trkpt lat="55.346079" lon="26.098933">
<time>2022-05-18T13:27:52Z</time>
</trkpt>
<trkpt lat="55.346021" lon="26.098336">
<time>2022-05-18T13:27:57Z</time>
</trkpt>
<trkpt lat="55.346023" lon="26.098264">
<time>2022-05-18T13:27:58Z</time>
</trkpt>
<trkpt lat="55.346012" lon="26.098185">
<time>2022-05-18T13:27:59Z</time>
</trkpt>
<trkpt lat="55.345983" lon="26.097995">
<time>2022-05-18T13:28:01Z</time>
</trkpt>
<trkpt lat="55.345937" lon="26.097461">
<time>2022-05-18T13:28:06Z</time>
</trkpt>
<trkpt lat="55.345916" lon="26.096926">
<time>2022-05-18T13:28:11Z</time>
</trkpt>
<trkpt lat="55.345913" lon="26.096813">
<time>2022-05-18T13:28:12Z</time>
</trkpt>
<trkpt lat="55.345852" lon="26.096099">
<time>2022-05-18T13:28:19Z</time>
</trkpt>
<trkpt lat="55.345878" lon="26.095897">
<time>2022-05-18T13:28:21Z</time>
</trkpt>
<trkpt lat="55.345914" lon="26.095834">
<time>2022-05-18T13:28:22Z</time>
</trkpt>
<trkpt lat="55.345992" lon="26.095697">
<time>2022-05-18T13:28:24Z</time>
</trkpt>
<trkpt lat="55.346121" lon="26.095436">
<time>2022-05-18T13:28:27Z</time>
</trkpt>
<trkpt lat="55.346198" lon="26.095323">
<time>2022-05-18T13:28:29Z</time>
</trkpt>
<trkpt lat="55.346347" lon="26.095116">
<time>2022-05-18T13:28:32Z</time>
</trkpt>
<trkpt lat="55.346381" lon="26.095049">
<time>2022-05-18T13:28:33Z</time>
</trkpt>
<trkpt lat="55.346426" lon="26.094843">
<time>2022-05-18T13:28:35Z</time>
</trkpt>
<trkpt lat="55.346423" lon="26.094718">
<time>2022-05-18T13:28:36Z</time>
</trkpt>
<trkpt lat="55.346398" lon="26.094504">
<time>2022-05-18T13:28:38Z</time>
</trkpt>
<trkpt lat="55.346412" lon="26.094273">
<time>2022-05-18T13:28:40Z</time>
</trkpt>
<trkpt lat="55.346455" lon="26.094165">
<time>2022-05-18T13:28:41Z</time>
</trkpt>
<trkpt lat="55.346504" lon="26.094088">
<time>2022-05-18T13:28:42Z</time>
</trkpt>
<trkpt lat="55.346605" lon="26.093974">
<time>2022-05-18T13:28:44Z</time>
</trkpt>
<trkpt lat="55.346672" lon="26.093924">
<time>2022-05-18T13:28:45Z</time>
</trkpt>
<trkpt lat="55.346928" lon="26.093798">
<time>2022-05-18T13:28:49Z</time>
</trkpt>
<trkpt lat="55.346983" lon="26.093756">
<time>2022-05-18T13:28:50Z</time>
</trkpt>
<trkpt lat="55.347041" lon="26.093677">
<time>2022-05-18T13:28:51Z</time>
</trkpt>
<trkpt lat="55.347165" lon="26.093449">
<time>2022-05-18T13:28:54Z</time>
</trkpt>
<trkpt lat="55.347354" lon="26.093059">
<time>2022-05-18T13:28:59Z</time>
</trkpt>
<trkpt lat="55.347438" lon="26.092885">
<time>2022-05-18T13:29:01Z</time>
</trkpt>
<trkpt lat="55.347555" lon="26.092709">
<time>2022-05-18T13:29:04Z</time>
</trkpt>
<trkpt lat="55.347713" lon="26.092475">
<time>2022-05-18T13:29:08Z</time>
</trkpt>
<trkpt lat="55.347811" lon="26.092423">
<time>2022-05-18T13:29:10Z</time>
</trkpt>
<trkpt lat="55.347912" lon="26.092443">
<time>2022-05-18T13:29:12Z</time>
</trkpt>
<trkpt lat="55.348008" lon="26.092488">
<time>2022-05-18T13:29:14Z</time>
</trkpt>
<trkpt lat="55.348429" lon="26.092743">
<time>2022-05-18T13:29:23Z</time>
</trkpt>
<trkpt lat="55.348477" lon="26.092769">
<time>2022-05-18T13:29:24Z</time>
</trkpt>
<trkpt lat="55.348728" lon="26.092904">
<time>2022-05-18T13:29:29Z</time>
</trkpt>
<trkpt lat="55.348799" lon="26.093032">
<time>2022-05-18T13:29:31Z</time>
</trkpt>
<trkpt lat="55.348821" lon="26.093207">
<time>2022-05-18T13:29:33Z</time>
</trkpt>
<trkpt lat="55.348845" lon="26.093382">
<time>2022-05-18T13:29:35Z</time>
</trkpt>
<trkpt lat="55.348918" lon="26.093485">
<time>2022-05-18T13:29:37Z</time>
</trkpt>
<trkpt lat="55.348961" lon="26.093501">
<time>2022-05-18T13:29:38Z</time>
</trkpt>
<trkpt lat="55.349134" lon="26.093484">
<time>2022-05-18T13:29:43Z</time>
</trkpt>
<trkpt lat="55.349108" lon="26.093467">
<time>2022-05-18T13:29:45Z</time>
</trkpt>
<trkpt lat="55.348967" lon="26.093517">
<time>2022-05-18T13:29:49Z</time>
</trkpt>
<trkpt lat="55.348889" lon="26.093611">
<time>2022-05-18T13:29:51Z</time>
</trkpt>
<trkpt lat="55.348835" lon="26.093734">
<time>2022-05-18T13:29:53Z</time>
</trkpt>
<trkpt lat="55.348802" lon="26.093883">
<time>2022-05-18T13:29:55Z</time>
</trkpt>
<trkpt lat="55.348798" lon="26.094047">
<time>2022-05-18T13:29:57Z</time>
</trkpt>
<trkpt lat="55.348886" lon="26.094469">
<time>2022-05-18T13:30:02Z</time>
</trkpt>
<trkpt lat="55.348964" lon="26.094961">
<time>2022-05-18T13:30:07Z</time>
</trkpt>
<trkpt lat="55.349106" lon="26.095761">
<time>2022-05-18T13:30:15Z</time>
</trkpt>
<trkpt lat="55.349146" lon="26.096066">
<time>2022-05-18T13:30:18Z</time>
</trkpt>
<trkpt lat="55.349157" lon="26.096398">
<time>2022-05-18T13:30:21Z</time>
</trkpt>
<trkpt lat="55.349168" lon="26.096521">
<time>2022-05-18T13:30:22Z</time>
</trkpt>
<trkpt lat="55.349227" lon="26.09703">
<time>2022-05-18T13:30:26Z</time>
</trkpt>
<trkpt lat="55.349234" lon="26.097158">
<time>2022-05-18T13:30:27Z</time>
</trkpt>
<trkpt lat="55.349209" lon="26.097419">
<time>2022-05-18T13:30:29Z</time>
</trkpt>
<trkpt lat="55.349101" lon="26.097934">
<time>2022-05-18T13:30:33Z</time>
</trkpt>
<trkpt lat="55.34908" lon="26.098066">
<time>2022-05-18T13:30:34Z</time>
</trkpt>
<trkpt lat="55.348986" lon="26.09871">
<time>2022-05-18T13:30:39Z</time>
</trkpt>
<trkpt lat="55.348946" lon="26.099069">
<time>2022-05-18T13:30:42Z</time>
</trkpt>
<trkpt lat="55.348944" lon="26.099174">
<time>2022-05-18T13:30:43Z</time>
</trkpt>
<trkpt lat="55.348997" lon="26.099371">
<time>2022-05-18T13:30:45Z</time>
</trkpt>
<trkpt lat="55.349212" lon="26.099811">
<time>2022-05-18T13:30:50Z</time>
</trkpt>
<trkpt lat="55.349259" lon="26.099899">
<time>2022-05-18T13:30:51Z</time>
</trkpt>
<trkpt lat="55.349432" lon="26.100208">
<time>2022-05-18T13:30:54Z</time>
</trkpt>
<trkpt lat="55.349471" lon="26.10038">
<time>2022-05-18T13:30:56Z</time>
</trkpt>
<trkpt lat="55.349462" lon="26.100554">
<time>2022-05-18T13:30:58Z</time>
</trkpt>
<trkpt lat="55.349421" lon="26.100733">
<time>2022-05-18T13:31:00Z</time>
</trkpt>
<trkpt lat="55.349387" lon="26.100941">
<time>2022-05-18T13:31:02Z</time>
</trkpt>
<trkpt lat="55.349395" lon="26.101096">
<time>2022-05-18T13:31:04Z</time>
</trkpt>
<trkpt lat="55.349467" lon="26.10123">
<time>2022-05-18T13:31:07Z</time>
</trkpt>
<trkpt lat="55.349506" lon="26.101257">
<time>2022-05-18T13:31:08Z</time>
</trkpt>
<trkpt lat="55.34955" lon="26.101284">
<time>2022-05-18T13:31:09Z</time>
</trkpt>
<trkpt lat="55.349651" lon="26.101314">
<time>2022-05-18T13:31:11Z</time>
</trkpt>
<trkpt lat="55.349709" lon="26.101315">
<time>2022-05-18T13:31:12Z</time>
</trkpt>
<trkpt lat="55.349768" lon="26.1013">
<time>2022-05-18T13:31:13Z</time>
</trkpt>
<trkpt lat="55.349948" lon="26.101199">
<time>2022-05-18T13:31:16Z</time>
</trkpt>
<trkpt lat="55.350137" lon="26.101111">
<time>2022-05-18T13:31:19Z</time>
</trkpt>
<trkpt lat="55.350289" lon="26.101113">
<time>2022-05-18T13:31:21Z</time>
</trkpt>
<trkpt lat="55.350359" lon="26.101138">
<time>2022-05-18T13:31:22Z</time>
</trkpt>
<trkpt lat="55.350573" lon="26.101253">
<time>2022-05-18T13:31:25Z</time>
</trkpt>
<trkpt lat="55.351159" lon="26.101567">
<time>2022-05-18T13:31:33Z</time>
</trkpt>
<trkpt lat="55.351469" lon="26.101734">
<time>2022-05-18T13:31:38Z</time>
</trkpt>
<trkpt lat="55.352005" lon="26.102031">
<time>2022-05-18T13:31:47Z</time>
</trkpt>
<trkpt lat="55.352398" lon="26.102271">
<time>2022-05-18T13:31:54Z</time>
</trkpt>
<trkpt lat="55.352493" lon="26.102347">
<time>2022-05-18T13:31:56Z</time>
</trkpt>
<trkpt lat="55.352816" lon="26.102571">
<time>2022-05-18T13:32:02Z</time>
</trkpt>
<trkpt lat="55.352851" lon="26.102624">
<time>2022-05-18T13:32:03Z</time>
</trkpt>
<trkpt lat="55.352864" lon="26.102677">
<time>2022-05-18T13:32:04Z</time>
</trkpt>
<trkpt lat="55.352836" lon="26.102769">
<time>2022-05-18T13:32:06Z</time>
</trkpt>
<trkpt lat="55.352662" lon="26.102923">
<time>2022-05-18T13:32:10Z</time>
</trkpt>
<trkpt lat="55.352575" lon="26.103021">
<time>2022-05-18T13:32:12Z</time>
</trkpt>
<trkpt lat="55.352414" lon="26.103304">
<time>2022-05-18T13:32:16Z</time>
</trkpt>
<trkpt lat="55.352232" lon="26.103757">
<time>2022-05-18T13:32:22Z</time>
</trkpt>
<trkpt lat="55.352211" lon="26.103835">
<time>2022-05-18T13:32:23Z</time>
</trkpt>
<trkpt lat="55.352117" lon="26.104392">
<time>2022-05-18T13:32:30Z</time>
</trkpt>
<trkpt lat="55.352041" lon="26.105076">
<time>2022-05-18T13:32:40Z</time>
</trkpt>
<trkpt lat="55.351955" lon="26.105373">
<time>2022-05-18T13:32:46Z</time>
</trkpt>
<trkpt lat="55.351745" lon="26.105883">
<time>2022-05-18T13:32:55Z</time>
</trkpt>
<trkpt lat="55.351513" lon="26.106282">
<time>2022-05-18T13:33:03Z</time>
</trkpt>
<trkpt lat="55.351425" lon="26.106428">
<time>2022-05-18T13:33:06Z</time>
</trkpt>
<trkpt lat="55.351298" lon="26.106645">
<time>2022-05-18T13:33:11Z</time>
</trkpt>
<trkpt lat="55.351357" lon="26.106716">
<time>2022-05-18T13:33:14Z</time>
</trkpt>
<trkpt lat="55.351388" lon="26.106716">
<time>2022-05-18T13:33:15Z</time>
</trkpt>
<trkpt lat="55.351452" lon="26.106722">
<time>2022-05-18T13:33:17Z</time>
</trkpt>
<trkpt lat="55.351531" lon="26.106751">
<time>2022-05-18T13:33:19Z</time>
</trkpt>
<trkpt lat="55.351579" lon="26.106778">
<time>2022-05-18T13:33:20Z</time>
</trkpt>
<trkpt lat="55.351918" lon="26.107">
<time>2022-05-18T13:33:26Z</time>
</trkpt>
<trkpt lat="55.352121" lon="26.107167">
<time>2022-05-18T13:33:31Z</time>
</trkpt>
<trkpt lat="55.352498" lon="26.10739">
<time>2022-05-18T13:33:39Z</time>
</trkpt>
<trkpt lat="55.352612" lon="26.10742">
<time>2022-05-18T13:33:42Z</time>
</trkpt>
<trkpt lat="55.352621" lon="26.107395">
<time>2022-05-18T13:33:43Z</time>
</trkpt>
<trkpt lat="55.352572" lon="26.107386">
<time>2022-05-18T13:33:46Z</time>
</trkpt>
<trkpt lat="55.352532" lon="26.107388">
<time>2022-05-18T13:33:47Z</time>
</trkpt>
<trkpt lat="55.352377" lon="26.107315">
<time>2022-05-18T13:33:50Z</time>
</trkpt>
<trkpt lat="55.352192" lon="26.107185">
<time>2022-05-18T13:33:53Z</time>
</trkpt>
<trkpt lat="55.35205" lon="26.107074">
<time>2022-05-18T13:33:55Z</time>
</trkpt>
<trkpt lat="55.351807" lon="26.106908">
<time>2022-05-18T13:33:58Z</time>
</trkpt>
<trkpt lat="55.351532" lon="26.10676">
<time>2022-05-18T13:34:01Z</time>
</trkpt>
<trkpt lat="55.351312" lon="26.106708">
<time>2022-05-18T13:34:04Z</time>
</trkpt>
<trkpt lat="55.351243" lon="26.106717">
<time>2022-05-18T13:34:05Z</time>
</trkpt>
<trkpt lat="55.351178" lon="26.106753">
<time>2022-05-18T13:34:06Z</time>
</trkpt>
<trkpt lat="55.351091" lon="26.106913">
<time>2022-05-18T13:34:08Z</time>
</trkpt>
<trkpt lat="55.35097" lon="26.107359">
<time>2022-05-18T13:34:12Z</time>
</trkpt>
<trkpt lat="55.350854" lon="26.107638">
<time>2022-05-18T13:34:15Z</time>
</trkpt>
<trkpt lat="55.350798" lon="26.107687">
<time>2022-05-18T13:34:16Z</time>
</trkpt>
<trkpt lat="55.350739" lon="26.107708">
<time>2022-05-18T13:34:17Z</time>
</trkpt>
<trkpt lat="55.350634" lon="26.107702">
<time>2022-05-18T13:34:19Z</time>
</trkpt>
<trkpt lat="55.350569" lon="26.107727">
<time>2022-05-18T13:34:20Z</time>
</trkpt>
<trkpt lat="55.350278" lon="26.10782">
<time>2022-05-18T13:34:25Z</time>
</trkpt>
<trkpt lat="55.350143" lon="26.107903">
<time>2022-05-18T13:34:28Z</time>
</trkpt>
<trkpt lat="55.35009" lon="26.107977">
<time>2022-05-18T13:34:30Z</time>
</trkpt>
<trkpt lat="55.349978" lon="26.108145">
<time>2022-05-18T13:34:35Z</time>
</trkpt>
<trkpt lat="55.349839" lon="26.108311">
<time>2022-05-18T13:34:41Z</time>
</trkpt>
<trkpt lat="55.349849" lon="26.108325">
<time>2022-05-18T13:34:44Z</time>
</trkpt>
<trkpt lat="55.349878" lon="26.108271">
<time>2022-05-18T13:34:46Z</time>
</trkpt>
<trkpt lat="55.349958" lon="26.108147">
<time>2022-05-18T13:34:49Z</time>
</trkpt>
<trkpt lat="55.350108" lon="26.107943">
<time>2022-05-18T13:34:52Z</time>
</trkpt>
<trkpt lat="55.350176" lon="26.10789">
<time>2022-05-18T13:34:53Z</time>
</trkpt>
<trkpt lat="55.350299" lon="26.107812">
<time>2022-05-18T13:34:55Z</time>
</trkpt>
<trkpt lat="55.350324" lon="26.107755">
<time>2022-05-18T13:34:56Z</time>
</trkpt>
<trkpt lat="55.350324" lon="26.107696">
<time>2022-05-18T13:34:57Z</time>
</trkpt>
<trkpt lat="55.350275" lon="26.107599">
<time>2022-05-18T13:34:59Z</time>
</trkpt>
<trkpt lat="55.350237" lon="26.107564">
<time>2022-05-18T13:35:00Z</time>
</trkpt>
<trkpt lat="55.349955" lon="26.107372">
<time>2022-05-18T13:35:06Z</time>
</trkpt>
<trkpt lat="55.349717" lon="26.107233">
<time>2022-05-18T13:35:12Z</time>
</trkpt>
<trkpt lat="55.349493" lon="26.10701">
<time>2022-05-18T13:35:17Z</time>
</trkpt>
<trkpt lat="55.349266" lon="26.106526">
<time>2022-05-18T13:35:22Z</time>
</trkpt>
<trkpt lat="55.349126" lon="26.106246">
<time>2022-05-18T13:35:25Z</time>
</trkpt>
<trkpt lat="55.349004" lon="26.106129">
<time>2022-05-18T13:35:27Z</time>
</trkpt>
<trkpt lat="55.348822" lon="26.106038">
<time>2022-05-18T13:35:30Z</time>
</trkpt>
<trkpt lat="55.348683" lon="26.106041">
<time>2022-05-18T13:35:32Z</time>
</trkpt>
<trkpt lat="55.348176" lon="26.106051">
<time>2022-05-18T13:35:40Z</time>
</trkpt>
<trkpt lat="55.348069" lon="26.105996">
<time>2022-05-18T13:35:42Z</time>
</trkpt>
<trkpt lat="55.347911" lon="26.105886">
<time>2022-05-18T13:35:45Z</time>
</trkpt>
<trkpt lat="55.347483" lon="26.105557">
<time>2022-05-18T13:35:53Z</time>
</trkpt>
<trkpt lat="55.347453" lon="26.105493">
<time>2022-05-18T13:35:54Z</time>
</trkpt>
<trkpt lat="55.347406" lon="26.10531">
<time>2022-05-18T13:35:56Z</time>
</trkpt>
<trkpt lat="55.347373" lon="26.105235">
<time>2022-05-18T13:35:57Z</time>
</trkpt>
<trkpt lat="55.347234" lon="26.104873">
<time>2022-05-18T13:36:02Z</time>
</trkpt>
<trkpt lat="55.347205" lon="26.10483">
<time>2022-05-18T13:36:03Z</time>
</trkpt>
<trkpt lat="55.347141" lon="26.10483">
<time>2022-05-18T13:36:05Z</time>
</trkpt>
<trkpt lat="55.347046" lon="26.104866">
<time>2022-05-18T13:36:07Z</time>
</trkpt>
<trkpt lat="55.346948" lon="26.104955">
<time>2022-05-18T13:36:09Z</time>
</trkpt>
<trkpt lat="55.346754" lon="26.105067">
<time>2022-05-18T13:36:12Z</time>
</trkpt>
<trkpt lat="55.346646" lon="26.105069">
<time>2022-05-18T13:36:14Z</time>
</trkpt>
<trkpt lat="55.346542" lon="26.105023">
<time>2022-05-18T13:36:16Z</time>
</trkpt>
<trkpt lat="55.346357" lon="26.10492">
<time>2022-05-18T13:36:19Z</time>
</trkpt>
<trkpt lat="55.346259" lon="26.104828">
<time>2022-05-18T13:36:21Z</time>
</trkpt>
<trkpt lat="55.346237" lon="26.104686">
<time>2022-05-18T13:36:23Z</time>
</trkpt>
<trkpt lat="55.346267" lon="26.104314">
<time>2022-05-18T13:36:27Z</time>
</trkpt>
<trkpt lat="55.346263" lon="26.104085">
<time>2022-05-18T13:36:29Z</time>
</trkpt>
<trkpt lat="55.346222" lon="26.103866">
<time>2022-05-18T13:36:31Z</time>
</trkpt>
<trkpt lat="55.346149" lon="26.103667">
<time>2022-05-18T13:36:33Z</time>
</trkpt>
<trkpt lat="55.346076" lon="26.103506">
<time>2022-05-18T13:36:35Z</time>
</trkpt>
<trkpt lat="55.345948" lon="26.103268">
<time>2022-05-18T13:36:38Z</time>
</trkpt>
<trkpt lat="55.345854" lon="26.103186">
<time>2022-05-18T13:36:40Z</time>
</trkpt>
<trkpt lat="55.345774" lon="26.103096">
<time>2022-05-18T13:36:43Z</time>
</trkpt>
<trkpt lat="55.345791" lon="26.103125">
<time>2022-05-18T13:36:45Z</time>
</trkpt>
<trkpt lat="55.345855" lon="26.103205">
<time>2022-05-18T13:36:47Z</time>
</trkpt>
<trkpt lat="55.345921" lon="26.103285">
<time>2022-05-18T13:36:49Z</time>
</trkpt>
<trkpt lat="55.345949" lon="26.103339">
<time>2022-05-18T13:36:50Z</time>
</trkpt>
<trkpt lat="55.346056" lon="26.103555">
<time>2022-05-18T13:36:53Z</time>
</trkpt>
<trkpt lat="55.346245" lon="26.104101">
<time>2022-05-18T13:36:59Z</time>
</trkpt>
<trkpt lat="55.346264" lon="26.104395">
<time>2022-05-18T13:37:01Z</time>
</trkpt>
<trkpt lat="55.346245" lon="26.104738">
<time>2022-05-18T13:37:03Z</time>
</trkpt>
<trkpt lat="55.346209" lon="26.105015">
<time>2022-05-18T13:37:05Z</time>
</trkpt>
<trkpt lat="55.346126" lon="26.105306">
<time>2022-05-18T13:37:07Z</time>
</trkpt>
<trkpt lat="55.345919" lon="26.106129">
<time>2022-05-18T13:37:13Z</time>
</trkpt>
<trkpt lat="55.345917" lon="26.106245">
<time>2022-05-18T13:37:14Z</time>
</trkpt>
<trkpt lat="55.345934" lon="26.106399">
<time>2022-05-18T13:37:15Z</time>
</trkpt>
<trkpt lat="55.34602" lon="26.106676">
<time>2022-05-18T13:37:17Z</time>
</trkpt>
<trkpt lat="55.346114" lon="26.106943">
<time>2022-05-18T13:37:19Z</time>
</trkpt>
<trkpt lat="55.346147" lon="26.107243">
<time>2022-05-18T13:37:21Z</time>
</trkpt>
<trkpt lat="55.346099" lon="26.107721">
<time>2022-05-18T13:37:24Z</time>
</trkpt>
<trkpt lat="55.345979" lon="26.108749">
<time>2022-05-18T13:37:30Z</time>
</trkpt>
<trkpt lat="55.345934" lon="26.109074">
<time>2022-05-18T13:37:32Z</time>
</trkpt>
<trkpt lat="55.345823" lon="26.110042">
<time>2022-05-18T13:37:39Z</time>
</trkpt>
<trkpt lat="55.345777" lon="26.110305">
<time>2022-05-18T13:37:40Z</time>
</trkpt>
<trkpt lat="55.345719" lon="26.110498">
<time>2022-05-18T13:37:43Z</time>
</trkpt>
<trkpt lat="55.345737" lon="26.110535">
<time>2022-05-18T13:37:44Z</time>
</trkpt>
<trkpt lat="55.345754" lon="26.110545">
<time>2022-05-18T13:37:46Z</time>
</trkpt>
<trkpt lat="55.345783" lon="26.110479">
<time>2022-05-18T13:37:47Z</time>
</trkpt>
<trkpt lat="55.345792" lon="26.11043">
<time>2022-05-18T13:37:48Z</time>
</trkpt>
<trkpt lat="55.34586" lon="26.109908">
<time>2022-05-18T13:37:55Z</time>
</trkpt>
<trkpt lat="55.345903" lon="26.109468">
<time>2022-05-18T13:38:00Z</time>
</trkpt>
<trkpt lat="55.345931" lon="26.109186">
<time>2022-05-18T13:38:03Z</time>
</trkpt>
<trkpt lat="55.345987" lon="26.1087">
<time>2022-05-18T13:38:08Z</time>
</trkpt>
<trkpt lat="55.346044" lon="26.108216">
<time>2022-05-18T13:38:13Z</time>
</trkpt>
<trkpt lat="55.346132" lon="26.107541">
<time>2022-05-18T13:38:20Z</time>
</trkpt>
<trkpt lat="55.346153" lon="26.107455">
<time>2022-05-18T13:38:21Z</time>
</trkpt>
<trkpt lat="55.346189" lon="26.107373">
<time>2022-05-18T13:38:22Z</time>
</trkpt>
<trkpt lat="55.346222" lon="26.107342">
<time>2022-05-18T13:38:23Z</time>
</trkpt>
<trkpt lat="55.346324" lon="26.107316">
<time>2022-05-18T13:38:25Z</time>
</trkpt>
<trkpt lat="55.346378" lon="26.107302">
<time>2022-05-18T13:38:26Z</time>
</trkpt>
<trkpt lat="55.346477" lon="26.107231">
<time>2022-05-18T13:38:28Z</time>
</trkpt>
<trkpt lat="55.346511" lon="26.107162">
<time>2022-05-18T13:38:29Z</time>
</trkpt>
<trkpt lat="55.346537" lon="26.107082">
<time>2022-05-18T13:38:30Z</time>
</trkpt>
<trkpt lat="55.346589" lon="26.106819">
<time>2022-05-18T13:38:33Z</time>
</trkpt>
<trkpt lat="55.34663" lon="26.106487">
<time>2022-05-18T13:38:37Z</time>
</trkpt>
<trkpt lat="55.346663" lon="26.106374">
<time>2022-05-18T13:38:39Z</time>
</trkpt>
<trkpt lat="55.346731" lon="26.106273">
<time>2022-05-18T13:38:41Z</time>
</trkpt>
<trkpt lat="55.346806" lon="26.106241">
<time>2022-05-18T13:38:43Z</time>
</trkpt>
<trkpt lat="55.346914" lon="26.106246">
<time>2022-05-18T13:38:45Z</time>
</trkpt>
<trkpt lat="55.347015" lon="26.106265">
<time>2022-05-18T13:38:47Z</time>
</trkpt>
<trkpt lat="55.347073" lon="26.106263">
<time>2022-05-18T13:38:48Z</time>
</trkpt>
<trkpt lat="55.347182" lon="26.106187">
<time>2022-05-18T13:38:50Z</time>
</trkpt>
<trkpt lat="55.34729" lon="26.105994">
<time>2022-05-18T13:38:53Z</time>
</trkpt>
<trkpt lat="55.34736" lon="26.105817">
<time>2022-05-18T13:38:55Z</time>
</trkpt>
<trkpt lat="55.347471" lon="26.105553">
<time>2022-05-18T13:38:59Z</time>
</trkpt>
<trkpt lat="55.34751" lon="26.105536">
<time>2022-05-18T13:39:00Z</time>
</trkpt>
<trkpt lat="55.347557" lon="26.105541">
<time>2022-05-18T13:39:01Z</time>
</trkpt>
<trkpt lat="55.347648" lon="26.105635">
<time>2022-05-18T13:39:03Z</time>
</trkpt>
<trkpt lat="55.347924" lon="26.105843">
<time>2022-05-18T13:39:08Z</time>
</trkpt>
<trkpt lat="55.347994" lon="26.105884">
<time>2022-05-18T13:39:09Z</time>
</trkpt>
<trkpt lat="55.34805" lon="26.105928">
<time>2022-05-18T13:39:10Z</time>
</trkpt>
<trkpt lat="55.348266" lon="26.106087">
<time>2022-05-18T13:39:14Z</time>
</trkpt>
<trkpt lat="55.348362" lon="26.106091">
<time>2022-05-18T13:39:16Z</time>
</trkpt>
<trkpt lat="55.348446" lon="26.106086">
<time>2022-05-18T13:39:18Z</time>
</trkpt>
<trkpt lat="55.348769" lon="26.106057">
<time>2022-05-18T13:39:25Z</time>
</trkpt>
<trkpt lat="55.348799" lon="26.106068">
<time>2022-05-18T13:39:26Z</time>
</trkpt>
<trkpt lat="55.348931" lon="26.106153">
<time>2022-05-18T13:39:29Z</time>
</trkpt>
<trkpt lat="55.348993" lon="26.106209">
<time>2022-05-18T13:39:30Z</time>
</trkpt>
<trkpt lat="55.34917" lon="26.106446">
<time>2022-05-18T13:39:34Z</time>
</trkpt>
<trkpt lat="55.349292" lon="26.106737">
<time>2022-05-18T13:39:38Z</time>
</trkpt>
<trkpt lat="55.349329" lon="26.106804">
<time>2022-05-18T13:39:39Z</time>
</trkpt>
<trkpt lat="55.349538" lon="26.107104">
<time>2022-05-18T13:39:44Z</time>
</trkpt>
<trkpt lat="55.34963" lon="26.107165">
<time>2022-05-18T13:39:46Z</time>
</trkpt>
<trkpt lat="55.349855" lon="26.107311">
<time>2022-05-18T13:39:51Z</time>
</trkpt>
<trkpt lat="55.350148" lon="26.107528">
<time>2022-05-18T13:39:56Z</time>
</trkpt>
<trkpt lat="55.350414" lon="26.107708">
<time>2022-05-18T13:40:00Z</time>
</trkpt>
<trkpt lat="55.350481" lon="26.107744">
<time>2022-05-18T13:40:01Z</time>
</trkpt>
<trkpt lat="55.350545" lon="26.107747">
<time>2022-05-18T13:40:02Z</time>
</trkpt>
<trkpt lat="55.350864" lon="26.107672">
<time>2022-05-18T13:40:07Z</time>
</trkpt>
<trkpt lat="55.350917" lon="26.107619">
<time>2022-05-18T13:40:08Z</time>
</trkpt>
<trkpt lat="55.350946" lon="26.10756">
<time>2022-05-18T13:40:09Z</time>
</trkpt>
<trkpt lat="55.351003" lon="26.107384">
<time>2022-05-18T13:40:11Z</time>
</trkpt>
<trkpt lat="55.351142" lon="26.106878">
<time>2022-05-18T13:40:16Z</time>
</trkpt>
<trkpt lat="55.351178" lon="26.106801">
<time>2022-05-18T13:40:17Z</time>
</trkpt>
<trkpt lat="55.351232" lon="26.106718">
<time>2022-05-18T13:40:18Z</time>
</trkpt>
<trkpt lat="55.351397" lon="26.106482">
<time>2022-05-18T13:40:22Z</time>
</trkpt>
<trkpt lat="55.351642" lon="26.106072">
<time>2022-05-18T13:40:27Z</time>
</trkpt>
<trkpt lat="55.351923" lon="26.105501">
<time>2022-05-18T13:40:33Z</time>
</trkpt>
<trkpt lat="55.352043" lon="26.105178">
<time>2022-05-18T13:40:36Z</time>
</trkpt>
<trkpt lat="55.352079" lon="26.104915">
<time>2022-05-18T13:40:38Z</time>
</trkpt>
<trkpt lat="55.352147" lon="26.104217">
<time>2022-05-18T13:40:43Z</time>
</trkpt>
<trkpt lat="55.35227" lon="26.103639">
<time>2022-05-18T13:40:47Z</time>
</trkpt>
<trkpt lat="55.352304" lon="26.103537">
<time>2022-05-18T13:40:48Z</time>
</trkpt>
<trkpt lat="55.352355" lon="26.103415">
<time>2022-05-18T13:40:49Z</time>
</trkpt>
<trkpt lat="55.35252" lon="26.103093">
<time>2022-05-18T13:40:52Z</time>
</trkpt>
<trkpt lat="55.352573" lon="26.103028">
<time>2022-05-18T13:40:53Z</time>
</trkpt>
<trkpt lat="55.352872" lon="26.102743">
<time>2022-05-18T13:40:58Z</time>
</trkpt>
<trkpt lat="55.352978" lon="26.102771">
<time>2022-05-18T13:41:00Z</time>
</trkpt>
<trkpt lat="55.353023" lon="26.102828">
<time>2022-05-18T13:41:01Z</time>
</trkpt>
<trkpt lat="55.353302" lon="26.103219">
<time>2022-05-18T13:41:06Z</time>
</trkpt>
<trkpt lat="55.353658" lon="26.103741">
<time>2022-05-18T13:41:14Z</time>
</trkpt>
<trkpt lat="55.354028" lon="26.104193">
<time>2022-05-18T13:41:21Z</time>
</trkpt>
<trkpt lat="55.354062" lon="26.10426">
<time>2022-05-18T13:41:22Z</time>
</trkpt>
<trkpt lat="55.354147" lon="26.104462">
<time>2022-05-18T13:41:24Z</time>
</trkpt>
<trkpt lat="55.354182" lon="26.104561">
<time>2022-05-18T13:41:25Z</time>
</trkpt>
<trkpt lat="55.35433" lon="26.104935">
<time>2022-05-18T13:41:29Z</time>
</trkpt>
<trkpt lat="55.354414" lon="26.105075">
<time>2022-05-18T13:41:31Z</time>
</trkpt>
<trkpt lat="55.354469" lon="26.105137">
<time>2022-05-18T13:41:32Z</time>
</trkpt>
<trkpt lat="55.354715" lon="26.105362">
<time>2022-05-18T13:41:36Z</time>
</trkpt>
<trkpt lat="55.355042" lon="26.105739">
<time>2022-05-18T13:41:42Z</time>
</trkpt>
<trkpt lat="55.355364" lon="26.106129">
<time>2022-05-18T13:41:48Z</time>
</trkpt>
<trkpt lat="55.355801" lon="26.10659">
<time>2022-05-18T13:41:56Z</time>
</trkpt>
<trkpt lat="55.355864" lon="26.106618">
<time>2022-05-18T13:41:57Z</time>
</trkpt>
<trkpt lat="55.356163" lon="26.106681">
<time>2022-05-18T13:42:02Z</time>
</trkpt>
<trkpt lat="55.356543" lon="26.106753">
<time>2022-05-18T13:42:09Z</time>
</trkpt>
<trkpt lat="55.357114" lon="26.106941">
<time>2022-05-18T13:42:17Z</time>
</trkpt>
<trkpt lat="55.357657" lon="26.107072">
<time>2022-05-18T13:42:26Z</time>
</trkpt>
<trkpt lat="55.357721" lon="26.107094">
<time>2022-05-18T13:42:27Z</time>
</trkpt>
<trkpt lat="55.358078" lon="26.107126">
<time>2022-05-18T13:42:33Z</time>
</trkpt>
<trkpt lat="55.358322" lon="26.107085">
<time>2022-05-18T13:42:37Z</time>
</trkpt>
<trkpt lat="55.358491" lon="26.107001">
<time>2022-05-18T13:42:40Z</time>
</trkpt>
<trkpt lat="55.358887" lon="26.106808">
<time>2022-05-18T13:42:47Z</time>
</trkpt>
<trkpt lat="55.358941" lon="26.106774">
<time>2022-05-18T13:42:48Z</time>
</trkpt>
<trkpt lat="55.359393" lon="26.106576">
<time>2022-05-18T13:42:56Z</time>
</trkpt>
<trkpt lat="55.359806" lon="26.106604">
<time>2022-05-18T13:43:04Z</time>
</trkpt>
<trkpt lat="55.359906" lon="26.106648">
<time>2022-05-18T13:43:06Z</time>
</trkpt>
<trkpt lat="55.360005" lon="26.106736">
<time>2022-05-18T13:43:08Z</time>
</trkpt>
<trkpt lat="55.36007" lon="26.106825">
<time>2022-05-18T13:43:09Z</time>
</trkpt>
<trkpt lat="55.360117" lon="26.106908">
<time>2022-05-18T13:43:10Z</time>
</trkpt>
<trkpt lat="55.36018" lon="26.107103">
<time>2022-05-18T13:43:12Z</time>
</trkpt>
<trkpt lat="55.360206" lon="26.107183">
<time>2022-05-18T13:43:13Z</time>
</trkpt>
<trkpt lat="55.36035" lon="26.107708">
<time>2022-05-18T13:43:19Z</time>
</trkpt>
<trkpt lat="55.360579" lon="26.108368">
<time>2022-05-18T13:43:27Z</time>
</trkpt>
<trkpt lat="55.360611" lon="26.108447">
<time>2022-05-18T13:43:28Z</time>
</trkpt>
<trkpt lat="55.360765" lon="26.10881">
<time>2022-05-18T13:43:33Z</time>
</trkpt>
<trkpt lat="55.360808" lon="26.109101">
<time>2022-05-18T13:43:36Z</time>
</trkpt>
<trkpt lat="55.360814" lon="26.109214">
<time>2022-05-18T13:43:37Z</time>
</trkpt>
<trkpt lat="55.360816" lon="26.10959">
<time>2022-05-18T13:43:41Z</time>
</trkpt>
<trkpt lat="55.360833" lon="26.109788">
<time>2022-05-18T13:43:43Z</time>
</trkpt>
<trkpt lat="55.360868" lon="26.10997">
<time>2022-05-18T13:43:45Z</time>
</trkpt>
<trkpt lat="55.360876" lon="26.110171">
<time>2022-05-18T13:43:48Z</time>
</trkpt>
<trkpt lat="55.360845" lon="26.11037">
<time>2022-05-18T13:43:49Z</time>
</trkpt>
<trkpt lat="55.360817" lon="26.110577">
<time>2022-05-18T13:43:51Z</time>
</trkpt>
<trkpt lat="55.360786" lon="26.111119">
<time>2022-05-18T13:43:57Z</time>
</trkpt>
<trkpt lat="55.360767" lon="26.111334">
<time>2022-05-18T13:43:59Z</time>
</trkpt>
<trkpt lat="55.360781" lon="26.111502">
<time>2022-05-18T13:44:01Z</time>
</trkpt>
<trkpt lat="55.360777" lon="26.111552">
<time>2022-05-18T13:44:02Z</time>
</trkpt>
<trkpt lat="55.36077" lon="26.111612">
<time>2022-05-18T13:44:03Z</time>
</trkpt>
<trkpt lat="55.360723" lon="26.11189">
<time>2022-05-18T13:44:07Z</time>
</trkpt>
<trkpt lat="55.360704" lon="26.112146">
<time>2022-05-18T13:44:11Z</time>
</trkpt>
<trkpt lat="55.360704" lon="26.112197">
<time>2022-05-18T13:44:12Z</time>
</trkpt>
<trkpt lat="55.360712" lon="26.112281">
<time>2022-05-18T13:44:13Z</time>
</trkpt>
<trkpt lat="55.360745" lon="26.11256">
<time>2022-05-18T13:44:17Z</time>
</trkpt>
<trkpt lat="55.36075" lon="26.112645">
<time>2022-05-18T13:44:18Z</time>
</trkpt>
<trkpt lat="55.360759" lon="26.113102">
<time>2022-05-18T13:44:25Z</time>
</trkpt>
<trkpt lat="55.36074" lon="26.113444">
<time>2022-05-18T13:44:30Z</time>
</trkpt>
<trkpt lat="55.360659" lon="26.114116">
<time>2022-05-18T13:44:39Z</time>
</trkpt>
<trkpt lat="55.360651" lon="26.114271">
<time>2022-05-18T13:44:41Z</time>
</trkpt>
<trkpt lat="55.360672" lon="26.114531">
<time>2022-05-18T13:44:44Z</time>
</trkpt>
<trkpt lat="55.36069" lon="26.114875">
<time>2022-05-18T13:44:47Z</time>
</trkpt>
<trkpt lat="55.360692" lon="26.114988">
<time>2022-05-18T13:44:48Z</time>
</trkpt>
<trkpt lat="55.360654" lon="26.115668">
<time>2022-05-18T13:44:53Z</time>
</trkpt>
<trkpt lat="55.360573" lon="26.116152">
<time>2022-05-18T13:44:57Z</time>
</trkpt>
<trkpt lat="55.360535" lon="26.116468">
<time>2022-05-18T13:44:59Z</time>
</trkpt>
<trkpt lat="55.360439" lon="26.11706">
<time>2022-05-18T13:45:04Z</time>
</trkpt>
<trkpt lat="55.360412" lon="26.117173">
<time>2022-05-18T13:45:05Z</time>
</trkpt>
<trkpt lat="55.360372" lon="26.117289">
<time>2022-05-18T13:45:06Z</time>
</trkpt>
<trkpt lat="55.360281" lon="26.117501">
<time>2022-05-18T13:45:08Z</time>
</trkpt>
<trkpt lat="55.360226" lon="26.117598">
<time>2022-05-18T13:45:09Z</time>
</trkpt>
<trkpt lat="55.360108" lon="26.117769">
<time>2022-05-18T13:45:11Z</time>
</trkpt>
<trkpt lat="55.359927" lon="26.117963">
<time>2022-05-18T13:45:14Z</time>
</trkpt>
<trkpt lat="55.359619" lon="26.118244">
<time>2022-05-18T13:45:19Z</time>
</trkpt>
<trkpt lat="55.359263" lon="26.11852">
<time>2022-05-18T13:45:24Z</time>
</trkpt>
<trkpt lat="55.35919" lon="26.11858">
<time>2022-05-18T13:45:25Z</time>
</trkpt>
<trkpt lat="55.358643" lon="26.118996">
<time>2022-05-18T13:45:33Z</time>
</trkpt>
<trkpt lat="55.358472" lon="26.119149">
<time>2022-05-18T13:45:36Z</time>
</trkpt>
<trkpt lat="55.358375" lon="26.119279">
<time>2022-05-18T13:45:38Z</time>
</trkpt>
<trkpt lat="55.358319" lon="26.119363">
<time>2022-05-18T13:45:39Z</time>
</trkpt>
<trkpt lat="55.358221" lon="26.119548">
<time>2022-05-18T13:45:41Z</time>
</trkpt>
<trkpt lat="55.358147" lon="26.11979">
<time>2022-05-18T13:45:43Z</time>
</trkpt>
<trkpt lat="55.35807" lon="26.120086">
<time>2022-05-18T13:45:45Z</time>
</trkpt>
<trkpt lat="55.357987" lon="26.120446">
<time>2022-05-18T13:45:47Z</time>
</trkpt>
<trkpt lat="55.357914" lon="26.120958">
<time>2022-05-18T13:45:50Z</time>
</trkpt>
<trkpt lat="55.357901" lon="26.121276">
<time>2022-05-18T13:45:52Z</time>
</trkpt>
<trkpt lat="55.357885" lon="26.121722">
<time>2022-05-18T13:45:55Z</time>
</trkpt>
<trkpt lat="55.357834" lon="26.121967">
<time>2022-05-18T13:45:57Z</time>
</trkpt>
<trkpt lat="55.357805" lon="26.122064">
<time>2022-05-18T13:45:58Z</time>
</trkpt>
<trkpt lat="55.357719" lon="26.122302">
<time>2022-05-18T13:46:01Z</time>
</trkpt>
<trkpt lat="55.357686" lon="26.12238">
<time>2022-05-18T13:46:02Z</time>
</trkpt>
<trkpt lat="55.357607" lon="26.122515">
<time>2022-05-18T13:46:04Z</time>
</trkpt>
<trkpt lat="55.357527" lon="26.122606">
<time>2022-05-18T13:46:06Z</time>
</trkpt>
<trkpt lat="55.357348" lon="26.1227">
<time>2022-05-18T13:46:11Z</time>
</trkpt>
<trkpt lat="55.3572" lon="26.122793">
<time>2022-05-18T13:46:15Z</time>
</trkpt>
<trkpt lat="55.357055" lon="26.122925">
<time>2022-05-18T13:46:19Z</time>
</trkpt>
<trkpt lat="55.356822" lon="26.123144">
<time>2022-05-18T13:46:26Z</time>
</trkpt>
<trkpt lat="55.356795" lon="26.123194">
<time>2022-05-18T13:46:27Z</time>
</trkpt>
<trkpt lat="55.356701" lon="26.123462">
<time>2022-05-18T13:46:31Z</time>
</trkpt>
<trkpt lat="55.356665" lon="26.123634">
<time>2022-05-18T13:46:33Z</time>
</trkpt>
<trkpt lat="55.356613" lon="26.124057">
<time>2022-05-18T13:46:37Z</time>
</trkpt>
<trkpt lat="55.35657" lon="26.124285">
<time>2022-05-18T13:46:39Z</time>
</trkpt>
<trkpt lat="55.356468" lon="26.124599">
<time>2022-05-18T13:46:42Z</time>
</trkpt>
<trkpt lat="55.356399" lon="26.124808">
<time>2022-05-18T13:46:44Z</time>
</trkpt>
<trkpt lat="55.356408" lon="26.125011">
<time>2022-05-18T13:46:46Z</time>
</trkpt>
<trkpt lat="55.356488" lon="26.125171">
<time>2022-05-18T13:46:48Z</time>
</trkpt>
<trkpt lat="55.356543" lon="26.125241">
<time>2022-05-18T13:46:49Z</time>
</trkpt>
<trkpt lat="55.356822" lon="26.125549">
<time>2022-05-18T13:46:53Z</time>
</trkpt>
<trkpt lat="55.357377" lon="26.126119">
<time>2022-05-18T13:47:00Z</time>
</trkpt>
<trkpt lat="55.357587" lon="26.126332">
<time>2022-05-18T13:47:03Z</time>
</trkpt>
<trkpt lat="55.35766" lon="26.126351">
<time>2022-05-18T13:47:04Z</time>
</trkpt>
<trkpt lat="55.357726" lon="26.126316">
<time>2022-05-18T13:47:05Z</time>
</trkpt>
<trkpt lat="55.357778" lon="26.126242">
<time>2022-05-18T13:47:06Z</time>
</trkpt>
<trkpt lat="55.35782" lon="26.126154">
<time>2022-05-18T13:47:07Z</time>
</trkpt>
<trkpt lat="55.357942" lon="26.125861">
<time>2022-05-18T13:47:10Z</time>
</trkpt>
<trkpt lat="55.358056" lon="26.125646">
<time>2022-05-18T13:47:13Z</time>
</trkpt>
<trkpt lat="55.358104" lon="26.125619">
<time>2022-05-18T13:47:14Z</time>
</trkpt>
<trkpt lat="55.358162" lon="26.125606">
<time>2022-05-18T13:47:15Z</time>
</trkpt>
<trkpt lat="55.358367" lon="26.125595">
<time>2022-05-18T13:47:18Z</time>
</trkpt>
<trkpt lat="55.358649" lon="26.125551">
<time>2022-05-18T13:47:22Z</time>
</trkpt>
<trkpt lat="55.358712" lon="26.125513">
<time>2022-05-18T13:47:23Z</time>
</trkpt>
<trkpt lat="55.359099" lon="26.125232">
<time>2022-05-18T13:47:30Z</time>
</trkpt>
<trkpt lat="55.3593" lon="26.125045">
<time>2022-05-18T13:47:34Z</time>
</trkpt>
<trkpt lat="55.359355" lon="26.125027">
<time>2022-05-18T13:47:35Z</time>
</trkpt>
<trkpt lat="55.359399" lon="26.125029">
<time>2022-05-18T13:47:36Z</time>
</trkpt>
<trkpt lat="55.359435" lon="26.125073">
<time>2022-05-18T13:47:38Z</time>
</trkpt>
<trkpt lat="55.359425" lon="26.12508">
<time>2022-05-18T13:47:39Z</time>
</trkpt>
<trkpt lat="55.359344" lon="26.125105">
<time>2022-05-18T13:47:43Z</time>
</trkpt>
<trkpt lat="55.35928" lon="26.125093">
<time>2022-05-18T13:47:46Z</time>
</trkpt>
<trkpt lat="55.359158" lon="26.125162">
<time>2022-05-18T13:47:51Z</time>
</trkpt>
<trkpt lat="55.358963" lon="26.125359">
<time>2022-05-18T13:47:58Z</time>
</trkpt>
<trkpt lat="55.35876" lon="26.125506">
<time>2022-05-18T13:48:04Z</time>
</trkpt>
<trkpt lat="55.358385" lon="26.125594">
<time>2022-05-18T13:48:13Z</time>
</trkpt>
<trkpt lat="55.358171" lon="26.125586">
<time>2022-05-18T13:48:18Z</time>
</trkpt>
<trkpt lat="55.358047" lon="26.125596">
<time>2022-05-18T13:48:21Z</time>
</trkpt>
<trkpt lat="55.357975" lon="26.125663">
<time>2022-05-18T13:48:23Z</time>
</trkpt>
<trkpt lat="55.357956" lon="26.125718">
<time>2022-05-18T13:48:24Z</time>
</trkpt>
<trkpt lat="55.357947" lon="26.125859">
<time>2022-05-18T13:48:26Z</time>
</trkpt>
<trkpt lat="55.357939" lon="26.126057">
<time>2022-05-18T13:48:29Z</time>
</trkpt>
<trkpt lat="55.357952" lon="26.126152">
<time>2022-05-18T13:48:31Z</time>
</trkpt>
<trkpt lat="55.357947" lon="26.126269">
<time>2022-05-18T13:48:34Z</time>
</trkpt>
<trkpt lat="55.357935" lon="26.126306">
<time>2022-05-18T13:48:35Z</time>
</trkpt>
<trkpt lat="55.357898" lon="26.126347">
<time>2022-05-18T13:48:37Z</time>
</trkpt>
<trkpt lat="55.357851" lon="26.126343">
<time>2022-05-18T13:48:39Z</time>
</trkpt>
<trkpt lat="55.357777" lon="26.126278">
<time>2022-05-18T13:48:42Z</time>
</trkpt>
<trkpt lat="55.357727" lon="26.126301">
<time>2022-05-18T13:48:44Z</time>
</trkpt>
<trkpt lat="55.357679" lon="26.126451">
<time>2022-05-18T13:48:49Z</time>
</trkpt>
<trkpt lat="55.357705" lon="26.126416">
<time>2022-05-18T13:48:51Z</time>
</trkpt>
<trkpt lat="55.357747" lon="26.126212">
<time>2022-05-18T13:48:55Z</time>
</trkpt>
<trkpt lat="55.357805" lon="26.126092">
<time>2022-05-18T13:48:57Z</time>
</trkpt>
<trkpt lat="55.357863" lon="26.126032">
<time>2022-05-18T13:48:59Z</time>
</trkpt>
<trkpt lat="55.357902" lon="26.126036">
<time>2022-05-18T13:49:00Z</time>
</trkpt>
<trkpt lat="55.357923" lon="26.126066">
<time>2022-05-18T13:49:01Z</time>
</trkpt>
</trkseg>
<name>Fabiano</name>
</trk>
</gpx>